<?xml version="1.0" encoding="UTF-8" standalone="no" ?>
<gpx xmlns="http://www.topografix.com/GPX/1/1" xmlns:xsi="http://www.w3.org/2001/XMLSchema-instance" xsi:schemaLocation="http://www.topografix.com/GPX/1/1 http://www.topografix.com/GPX/1/1/gpx.xsd" version="1.1" creator="VisuGPX - https://www.visugpx.com">
  <metadata>
    <name>Bousselange</name>
    <desc><![CDATA[Circuit cyclos du 15/03/2011]]></desc>
  </metadata>
  <trk>
    <name><![CDATA[bousselange]]></name>
    <trkseg>
      <trkpt lat="47.0598" lon="5.46257">
        <ele>145.296387</ele>
        <time>2011-03-15T14:02:14Z</time>
      </trkpt>
      <trkpt lat="47.05987" lon="5.46251">
        <ele>145.296387</ele>
        <time>2011-03-15T14:02:16Z</time>
      </trkpt>
      <trkpt lat="47.06024" lon="5.46209">
        <ele>146.257813</ele>
        <time>2011-03-15T14:02:29Z</time>
      </trkpt>
      <trkpt lat="47.06061" lon="5.46173">
        <ele>146.257813</ele>
        <time>2011-03-15T14:02:38Z</time>
      </trkpt>
      <trkpt lat="47.06084" lon="5.46135">
        <ele>149.141602</ele>
        <time>2011-03-15T14:02:46Z</time>
      </trkpt>
      <trkpt lat="47.06098" lon="5.46102">
        <ele>149.622314</ele>
        <time>2011-03-15T14:02:54Z</time>
      </trkpt>
      <trkpt lat="47.06075" lon="5.46084">
        <ele>146.257813</ele>
        <time>2011-03-15T14:03:01Z</time>
      </trkpt>
      <trkpt lat="47.06054" lon="5.46054">
        <ele>146.257813</ele>
        <time>2011-03-15T14:03:06Z</time>
      </trkpt>
      <trkpt lat="47.06019" lon="5.45946">
        <ele>146.738403</ele>
        <time>2011-03-15T14:03:21Z</time>
      </trkpt>
      <trkpt lat="47.0596" lon="5.45753">
        <ele>146.257813</ele>
        <time>2011-03-15T14:03:46Z</time>
      </trkpt>
      <trkpt lat="47.0591" lon="5.45583">
        <ele>146.738403</ele>
        <time>2011-03-15T14:04:07Z</time>
      </trkpt>
      <trkpt lat="47.05848" lon="5.45389">
        <ele>147.218994</ele>
        <time>2011-03-15T14:04:31Z</time>
      </trkpt>
      <trkpt lat="47.05794" lon="5.45217">
        <ele>146.738403</ele>
        <time>2011-03-15T14:04:51Z</time>
      </trkpt>
      <trkpt lat="47.05735" lon="5.45026">
        <ele>147.699707</ele>
        <time>2011-03-15T14:05:13Z</time>
      </trkpt>
      <trkpt lat="47.05723" lon="5.4498">
        <ele>151.064209</ele>
        <time>2011-03-15T14:05:18Z</time>
      </trkpt>
      <trkpt lat="47.05717" lon="5.44961">
        <ele>154.428955</ele>
        <time>2011-03-15T14:05:20Z</time>
      </trkpt>
      <trkpt lat="47.0571" lon="5.44935">
        <ele>159.235474</ele>
        <time>2011-03-15T14:05:23Z</time>
      </trkpt>
      <trkpt lat="47.05702" lon="5.44908">
        <ele>162.600098</ele>
        <time>2011-03-15T14:05:26Z</time>
      </trkpt>
      <trkpt lat="47.05697" lon="5.4489">
        <ele>165.484131</ele>
        <time>2011-03-15T14:05:28Z</time>
      </trkpt>
      <trkpt lat="47.05687" lon="5.44863">
        <ele>168.848755</ele>
        <time>2011-03-15T14:05:31Z</time>
      </trkpt>
      <trkpt lat="47.05679" lon="5.44836">
        <ele>172.69397</ele>
        <time>2011-03-15T14:05:34Z</time>
      </trkpt>
      <trkpt lat="47.05673" lon="5.44819">
        <ele>174.135864</ele>
        <time>2011-03-15T14:05:36Z</time>
      </trkpt>
      <trkpt lat="47.05668" lon="5.44801">
        <ele>176.058594</ele>
        <time>2011-03-15T14:05:38Z</time>
      </trkpt>
      <trkpt lat="47.0566" lon="5.44775">
        <ele>179.423218</ele>
        <time>2011-03-15T14:05:41Z</time>
      </trkpt>
      <trkpt lat="47.05649" lon="5.44739">
        <ele>182.307129</ele>
        <time>2011-03-15T14:05:45Z</time>
      </trkpt>
      <trkpt lat="47.05643" lon="5.44722">
        <ele>183.749023</ele>
        <time>2011-03-15T14:05:47Z</time>
      </trkpt>
      <trkpt lat="47.05631" lon="5.44678">
        <ele>187.11377</ele>
        <time>2011-03-15T14:05:52Z</time>
      </trkpt>
      <trkpt lat="47.05625" lon="5.4466">
        <ele>188.555786</ele>
        <time>2011-03-15T14:05:54Z</time>
      </trkpt>
      <trkpt lat="47.05609" lon="5.44593">
        <ele>191.920288</ele>
        <time>2011-03-15T14:06:01Z</time>
      </trkpt>
      <trkpt lat="47.05552" lon="5.44409">
        <ele>194.32373</ele>
        <time>2011-03-15T14:06:22Z</time>
      </trkpt>
      <trkpt lat="47.05549" lon="5.44373">
        <ele>194.804321</ele>
        <time>2011-03-15T14:06:26Z</time>
      </trkpt>
      <trkpt lat="47.05555" lon="5.44341">
        <ele>195.765625</ele>
        <time>2011-03-15T14:06:30Z</time>
      </trkpt>
      <trkpt lat="47.05568" lon="5.44314">
        <ele>196.246338</ele>
        <time>2011-03-15T14:06:34Z</time>
      </trkpt>
      <trkpt lat="47.05601" lon="5.4427">
        <ele>195.284912</ele>
        <time>2011-03-15T14:06:42Z</time>
      </trkpt>
      <trkpt lat="47.05614" lon="5.44257">
        <ele>195.284912</ele>
        <time>2011-03-15T14:06:45Z</time>
      </trkpt>
      <trkpt lat="47.05625" lon="5.44243">
        <ele>195.284912</ele>
        <time>2011-03-15T14:06:48Z</time>
      </trkpt>
      <trkpt lat="47.05635" lon="5.44218">
        <ele>194.32373</ele>
        <time>2011-03-15T14:06:52Z</time>
      </trkpt>
      <trkpt lat="47.05648" lon="5.44198">
        <ele>193.843018</ele>
        <time>2011-03-15T14:06:55Z</time>
      </trkpt>
      <trkpt lat="47.0567" lon="5.44186">
        <ele>195.284912</ele>
        <time>2011-03-15T14:07:00Z</time>
      </trkpt>
      <trkpt lat="47.05757" lon="5.44081">
        <ele>194.804321</ele>
        <time>2011-03-15T14:07:20Z</time>
      </trkpt>
      <trkpt lat="47.05867" lon="5.43945">
        <ele>194.32373</ele>
        <time>2011-03-15T14:07:43Z</time>
      </trkpt>
      <trkpt lat="47.05958" lon="5.43815">
        <ele>194.32373</ele>
        <time>2011-03-15T14:08:04Z</time>
      </trkpt>
      <trkpt lat="47.05977" lon="5.43762">
        <ele>195.284912</ele>
        <time>2011-03-15T14:08:11Z</time>
      </trkpt>
      <trkpt lat="47.0598" lon="5.43702">
        <ele>195.765625</ele>
        <time>2011-03-15T14:08:18Z</time>
      </trkpt>
      <trkpt lat="47.05977" lon="5.43678">
        <ele>195.284912</ele>
        <time>2011-03-15T14:08:21Z</time>
      </trkpt>
      <trkpt lat="47.05974" lon="5.43541">
        <ele>195.284912</ele>
        <time>2011-03-15T14:08:36Z</time>
      </trkpt>
      <trkpt lat="47.05976" lon="5.43331">
        <ele>193.843018</ele>
        <time>2011-03-15T14:08:58Z</time>
      </trkpt>
      <trkpt lat="47.05974" lon="5.43089">
        <ele>194.804321</ele>
        <time>2011-03-15T14:09:24Z</time>
      </trkpt>
      <trkpt lat="47.05975" lon="5.43006">
        <ele>194.804321</ele>
        <time>2011-03-15T14:09:33Z</time>
      </trkpt>
      <trkpt lat="47.05967" lon="5.42959">
        <ele>194.32373</ele>
        <time>2011-03-15T14:09:38Z</time>
      </trkpt>
      <trkpt lat="47.05972" lon="5.4291">
        <ele>194.804321</ele>
        <time>2011-03-15T14:09:44Z</time>
      </trkpt>
      <trkpt lat="47.0597" lon="5.4273">
        <ele>195.765625</ele>
        <time>2011-03-15T14:10:05Z</time>
      </trkpt>
      <trkpt lat="47.05971" lon="5.42678">
        <ele>197.20752</ele>
        <time>2011-03-15T14:10:13Z</time>
      </trkpt>
      <trkpt lat="47.05966" lon="5.42674">
        <ele>197.688232</ele>
        <time>2011-03-15T14:10:17Z</time>
      </trkpt>
      <trkpt lat="47.05948" lon="5.42675">
        <ele>197.688232</ele>
        <time>2011-03-15T14:10:24Z</time>
      </trkpt>
      <trkpt lat="47.05944" lon="5.42621">
        <ele>195.765625</ele>
        <time>2011-03-15T14:10:32Z</time>
      </trkpt>
      <trkpt lat="47.05949" lon="5.42481">
        <ele>194.804321</ele>
        <time>2011-03-15T14:10:48Z</time>
      </trkpt>
      <trkpt lat="47.05948" lon="5.42366">
        <ele>194.804321</ele>
        <time>2011-03-15T14:11:02Z</time>
      </trkpt>
      <trkpt lat="47.05948" lon="5.4236">
        <ele>195.284912</ele>
        <time>2011-03-15T14:11:03Z</time>
      </trkpt>
      <trkpt lat="47.05945" lon="5.42279">
        <ele>194.804321</ele>
        <time>2011-03-15T14:11:12Z</time>
      </trkpt>
      <trkpt lat="47.05946" lon="5.422">
        <ele>195.284912</ele>
        <time>2011-03-15T14:11:20Z</time>
      </trkpt>
      <trkpt lat="47.05945" lon="5.42079">
        <ele>195.765625</ele>
        <time>2011-03-15T14:11:32Z</time>
      </trkpt>
      <trkpt lat="47.05948" lon="5.41947">
        <ele>195.765625</ele>
        <time>2011-03-15T14:11:46Z</time>
      </trkpt>
      <trkpt lat="47.05945" lon="5.41841">
        <ele>194.804321</ele>
        <time>2011-03-15T14:11:57Z</time>
      </trkpt>
      <trkpt lat="47.05943" lon="5.41787">
        <ele>195.284912</ele>
        <time>2011-03-15T14:12:02Z</time>
      </trkpt>
      <trkpt lat="47.05938" lon="5.41734">
        <ele>195.284912</ele>
        <time>2011-03-15T14:12:08Z</time>
      </trkpt>
      <trkpt lat="47.05938" lon="5.4164">
        <ele>195.765625</ele>
        <time>2011-03-15T14:12:18Z</time>
      </trkpt>
      <trkpt lat="47.05943" lon="5.41532">
        <ele>194.804321</ele>
        <time>2011-03-15T14:12:29Z</time>
      </trkpt>
      <trkpt lat="47.05941" lon="5.41356">
        <ele>195.765625</ele>
        <time>2011-03-15T14:12:48Z</time>
      </trkpt>
      <trkpt lat="47.05939" lon="5.4134">
        <ele>195.765625</ele>
        <time>2011-03-15T14:12:50Z</time>
      </trkpt>
      <trkpt lat="47.05942" lon="5.41307">
        <ele>195.765625</ele>
        <time>2011-03-15T14:12:54Z</time>
      </trkpt>
      <trkpt lat="47.05942" lon="5.41275">
        <ele>196.246338</ele>
        <time>2011-03-15T14:13:04Z</time>
      </trkpt>
      <trkpt lat="47.05935" lon="5.4127">
        <ele>196.246338</ele>
        <time>2011-03-15T14:13:09Z</time>
      </trkpt>
      <trkpt lat="47.05879" lon="5.41271">
        <ele>193.843018</ele>
        <time>2011-03-15T14:13:23Z</time>
      </trkpt>
      <trkpt lat="47.05867" lon="5.4127">
        <ele>193.843018</ele>
        <time>2011-03-15T14:13:25Z</time>
      </trkpt>
      <trkpt lat="47.05833" lon="5.41293">
        <ele>193.362305</ele>
        <time>2011-03-15T14:13:33Z</time>
      </trkpt>
      <trkpt lat="47.05825" lon="5.41307">
        <ele>193.362305</ele>
        <time>2011-03-15T14:13:35Z</time>
      </trkpt>
      <trkpt lat="47.05791" lon="5.41372">
        <ele>192.881714</ele>
        <time>2011-03-15T14:13:46Z</time>
      </trkpt>
      <trkpt lat="47.0576" lon="5.41392">
        <ele>193.362305</ele>
        <time>2011-03-15T14:13:52Z</time>
      </trkpt>
      <trkpt lat="47.0568" lon="5.41396">
        <ele>192.881714</ele>
        <time>2011-03-15T14:14:06Z</time>
      </trkpt>
      <trkpt lat="47.05648" lon="5.41392">
        <ele>192.881714</ele>
        <time>2011-03-15T14:14:13Z</time>
      </trkpt>
      <trkpt lat="47.05557" lon="5.41392">
        <ele>192.881714</ele>
        <time>2011-03-15T14:14:29Z</time>
      </trkpt>
      <trkpt lat="47.05459" lon="5.41396">
        <ele>192.881714</ele>
        <time>2011-03-15T14:14:46Z</time>
      </trkpt>
      <trkpt lat="47.05391" lon="5.41397">
        <ele>192.881714</ele>
        <time>2011-03-15T14:14:59Z</time>
      </trkpt>
      <trkpt lat="47.05299" lon="5.41398">
        <ele>193.362305</ele>
        <time>2011-03-15T14:15:15Z</time>
      </trkpt>
      <trkpt lat="47.05284" lon="5.41396">
        <ele>192.881714</ele>
        <time>2011-03-15T14:15:18Z</time>
      </trkpt>
      <trkpt lat="47.05263" lon="5.41384">
        <ele>193.362305</ele>
        <time>2011-03-15T14:15:22Z</time>
      </trkpt>
      <trkpt lat="47.05253" lon="5.41376">
        <ele>193.362305</ele>
        <time>2011-03-15T14:15:24Z</time>
      </trkpt>
      <trkpt lat="47.05232" lon="5.41387">
        <ele>193.362305</ele>
        <time>2011-03-15T14:15:29Z</time>
      </trkpt>
      <trkpt lat="47.0516" lon="5.41396">
        <ele>192.881714</ele>
        <time>2011-03-15T14:15:41Z</time>
      </trkpt>
      <trkpt lat="47.05037" lon="5.41397">
        <ele>193.362305</ele>
        <time>2011-03-15T14:16:01Z</time>
      </trkpt>
      <trkpt lat="47.04975" lon="5.41396">
        <ele>192.881714</ele>
        <time>2011-03-15T14:16:11Z</time>
      </trkpt>
      <trkpt lat="47.04888" lon="5.4139">
        <ele>193.362305</ele>
        <time>2011-03-15T14:16:25Z</time>
      </trkpt>
      <trkpt lat="47.04868" lon="5.41377">
        <ele>193.362305</ele>
        <time>2011-03-15T14:16:29Z</time>
      </trkpt>
      <trkpt lat="47.04842" lon="5.41384">
        <ele>193.362305</ele>
        <time>2011-03-15T14:16:34Z</time>
      </trkpt>
      <trkpt lat="47.04825" lon="5.41389">
        <ele>192.881714</ele>
        <time>2011-03-15T14:16:37Z</time>
      </trkpt>
      <trkpt lat="47.04793" lon="5.41388">
        <ele>193.362305</ele>
        <time>2011-03-15T14:16:43Z</time>
      </trkpt>
      <trkpt lat="47.04777" lon="5.41376">
        <ele>192.881714</ele>
        <time>2011-03-15T14:16:47Z</time>
      </trkpt>
      <trkpt lat="47.04759" lon="5.41376">
        <ele>192.881714</ele>
        <time>2011-03-15T14:16:51Z</time>
      </trkpt>
      <trkpt lat="47.0475" lon="5.41379">
        <ele>193.362305</ele>
        <time>2011-03-15T14:16:53Z</time>
      </trkpt>
      <trkpt lat="47.04692" lon="5.41362">
        <ele>193.362305</ele>
        <time>2011-03-15T14:17:04Z</time>
      </trkpt>
      <trkpt lat="47.0459" lon="5.41325">
        <ele>193.843018</ele>
        <time>2011-03-15T14:17:22Z</time>
      </trkpt>
      <trkpt lat="47.04568" lon="5.41312">
        <ele>193.362305</ele>
        <time>2011-03-15T14:17:26Z</time>
      </trkpt>
      <trkpt lat="47.04469" lon="5.41284">
        <ele>193.362305</ele>
        <time>2011-03-15T14:17:44Z</time>
      </trkpt>
      <trkpt lat="47.04382" lon="5.41275">
        <ele>193.362305</ele>
        <time>2011-03-15T14:18:01Z</time>
      </trkpt>
      <trkpt lat="47.04367" lon="5.41273">
        <ele>194.32373</ele>
        <time>2011-03-15T14:18:04Z</time>
      </trkpt>
      <trkpt lat="47.04326" lon="5.41261">
        <ele>193.362305</ele>
        <time>2011-03-15T14:18:12Z</time>
      </trkpt>
      <trkpt lat="47.04312" lon="5.41274">
        <ele>193.362305</ele>
        <time>2011-03-15T14:18:15Z</time>
      </trkpt>
      <trkpt lat="47.04228" lon="5.41278">
        <ele>193.843018</ele>
        <time>2011-03-15T14:18:29Z</time>
      </trkpt>
      <trkpt lat="47.04156" lon="5.41274">
        <ele>193.843018</ele>
        <time>2011-03-15T14:18:40Z</time>
      </trkpt>
      <trkpt lat="47.04028" lon="5.4127">
        <ele>193.843018</ele>
        <time>2011-03-15T14:19:00Z</time>
      </trkpt>
      <trkpt lat="47.03887" lon="5.41266">
        <ele>193.843018</ele>
        <time>2011-03-15T14:19:23Z</time>
      </trkpt>
      <trkpt lat="47.03872" lon="5.41266">
        <ele>193.362305</ele>
        <time>2011-03-15T14:19:26Z</time>
      </trkpt>
      <trkpt lat="47.03856" lon="5.41275">
        <ele>193.362305</ele>
        <time>2011-03-15T14:19:31Z</time>
      </trkpt>
      <trkpt lat="47.03853" lon="5.41287">
        <ele>193.362305</ele>
        <time>2011-03-15T14:19:41Z</time>
      </trkpt>
      <trkpt lat="47.03859" lon="5.413">
        <ele>193.843018</ele>
        <time>2011-03-15T14:19:44Z</time>
      </trkpt>
      <trkpt lat="47.03854" lon="5.41316">
        <ele>193.843018</ele>
        <time>2011-03-15T14:19:48Z</time>
      </trkpt>
      <trkpt lat="47.0384" lon="5.41326">
        <ele>193.843018</ele>
        <time>2011-03-15T14:19:53Z</time>
      </trkpt>
      <trkpt lat="47.0382" lon="5.41334">
        <ele>193.843018</ele>
        <time>2011-03-15T14:19:57Z</time>
      </trkpt>
      <trkpt lat="47.03804" lon="5.41338">
        <ele>194.32373</ele>
        <time>2011-03-15T14:20:00Z</time>
      </trkpt>
      <trkpt lat="47.03743" lon="5.41322">
        <ele>193.362305</ele>
        <time>2011-03-15T14:20:13Z</time>
      </trkpt>
      <trkpt lat="47.03694" lon="5.41262">
        <ele>193.843018</ele>
        <time>2011-03-15T14:20:25Z</time>
      </trkpt>
      <trkpt lat="47.03608" lon="5.41149">
        <ele>193.843018</ele>
        <time>2011-03-15T14:20:46Z</time>
      </trkpt>
      <trkpt lat="47.03562" lon="5.41053">
        <ele>193.843018</ele>
        <time>2011-03-15T14:20:59Z</time>
      </trkpt>
      <trkpt lat="47.03542" lon="5.41019">
        <ele>193.843018</ele>
        <time>2011-03-15T14:21:05Z</time>
      </trkpt>
      <trkpt lat="47.03531" lon="5.41017">
        <ele>193.362305</ele>
        <time>2011-03-15T14:21:07Z</time>
      </trkpt>
      <trkpt lat="47.03506" lon="5.40996">
        <ele>193.843018</ele>
        <time>2011-03-15T14:21:12Z</time>
      </trkpt>
      <trkpt lat="47.03441" lon="5.409">
        <ele>193.362305</ele>
        <time>2011-03-15T14:21:26Z</time>
      </trkpt>
      <trkpt lat="47.03426" lon="5.40874">
        <ele>193.362305</ele>
        <time>2011-03-15T14:21:30Z</time>
      </trkpt>
      <trkpt lat="47.03361" lon="5.408">
        <ele>193.843018</ele>
        <time>2011-03-15T14:21:44Z</time>
      </trkpt>
      <trkpt lat="47.03348" lon="5.40779">
        <ele>193.362305</ele>
        <time>2011-03-15T14:21:48Z</time>
      </trkpt>
      <trkpt lat="47.03317" lon="5.40799">
        <ele>194.804321</ele>
        <time>2011-03-15T14:21:56Z</time>
      </trkpt>
      <trkpt lat="47.03286" lon="5.40794">
        <ele>195.765625</ele>
        <time>2011-03-15T14:22:04Z</time>
      </trkpt>
      <trkpt lat="47.03226" lon="5.40717">
        <ele>199.130127</ele>
        <time>2011-03-15T14:22:21Z</time>
      </trkpt>
      <trkpt lat="47.0317" lon="5.40715">
        <ele>201.052856</ele>
        <time>2011-03-15T14:22:33Z</time>
      </trkpt>
      <trkpt lat="47.03117" lon="5.4073">
        <ele>200.091675</ele>
        <time>2011-03-15T14:22:43Z</time>
      </trkpt>
      <trkpt lat="47.03102" lon="5.40742">
        <ele>199.61084</ele>
        <time>2011-03-15T14:22:46Z</time>
      </trkpt>
      <trkpt lat="47.03074" lon="5.4078">
        <ele>197.688232</ele>
        <time>2011-03-15T14:22:52Z</time>
      </trkpt>
      <trkpt lat="47.03053" lon="5.40788">
        <ele>196.726929</ele>
        <time>2011-03-15T14:22:56Z</time>
      </trkpt>
      <trkpt lat="47.03053" lon="5.40754">
        <ele>196.246338</ele>
        <time>2011-03-15T14:23:00Z</time>
      </trkpt>
      <trkpt lat="47.03065" lon="5.40742">
        <ele>195.765625</ele>
        <time>2011-03-15T14:23:02Z</time>
      </trkpt>
      <trkpt lat="47.031" lon="5.40716">
        <ele>194.804321</ele>
        <time>2011-03-15T14:23:08Z</time>
      </trkpt>
      <trkpt lat="47.03123" lon="5.40655">
        <ele>194.32373</ele>
        <time>2011-03-15T14:23:16Z</time>
      </trkpt>
      <trkpt lat="47.03116" lon="5.40629">
        <ele>194.32373</ele>
        <time>2011-03-15T14:23:19Z</time>
      </trkpt>
      <trkpt lat="47.03079" lon="5.40547">
        <ele>194.32373</ele>
        <time>2011-03-15T14:23:29Z</time>
      </trkpt>
      <trkpt lat="47.02995" lon="5.4048">
        <ele>193.843018</ele>
        <time>2011-03-15T14:23:44Z</time>
      </trkpt>
      <trkpt lat="47.02821" lon="5.40364">
        <ele>193.362305</ele>
        <time>2011-03-15T14:24:12Z</time>
      </trkpt>
      <trkpt lat="47.02637" lon="5.40234">
        <ele>194.32373</ele>
        <time>2011-03-15T14:24:42Z</time>
      </trkpt>
      <trkpt lat="47.02466" lon="5.40081">
        <ele>195.284912</ele>
        <time>2011-03-15T14:25:12Z</time>
      </trkpt>
      <trkpt lat="47.02295" lon="5.39915">
        <ele>194.804321</ele>
        <time>2011-03-15T14:25:43Z</time>
      </trkpt>
      <trkpt lat="47.02141" lon="5.39758">
        <ele>194.32373</ele>
        <time>2011-03-15T14:26:12Z</time>
      </trkpt>
      <trkpt lat="47.02014" lon="5.39619">
        <ele>193.362305</ele>
        <time>2011-03-15T14:26:37Z</time>
      </trkpt>
      <trkpt lat="47.01857" lon="5.39469">
        <ele>193.843018</ele>
        <time>2011-03-15T14:27:04Z</time>
      </trkpt>
      <trkpt lat="47.01746" lon="5.39375">
        <ele>193.843018</ele>
        <time>2011-03-15T14:27:21Z</time>
      </trkpt>
      <trkpt lat="47.01608" lon="5.39241">
        <ele>193.843018</ele>
        <time>2011-03-15T14:27:43Z</time>
      </trkpt>
      <trkpt lat="47.0149" lon="5.39146">
        <ele>193.843018</ele>
        <time>2011-03-15T14:28:02Z</time>
      </trkpt>
      <trkpt lat="47.01317" lon="5.39011">
        <ele>194.32373</ele>
        <time>2011-03-15T14:28:28Z</time>
      </trkpt>
      <trkpt lat="47.01178" lon="5.3892">
        <ele>194.804321</ele>
        <time>2011-03-15T14:28:47Z</time>
      </trkpt>
      <trkpt lat="47.0108" lon="5.38884">
        <ele>193.362305</ele>
        <time>2011-03-15T14:29:03Z</time>
      </trkpt>
      <trkpt lat="47.0107" lon="5.38858">
        <ele>193.362305</ele>
        <time>2011-03-15T14:29:09Z</time>
      </trkpt>
      <trkpt lat="47.01125" lon="5.38712">
        <ele>192.401123</ele>
        <time>2011-03-15T14:29:30Z</time>
      </trkpt>
      <trkpt lat="47.01132" lon="5.38577">
        <ele>192.401123</ele>
        <time>2011-03-15T14:29:46Z</time>
      </trkpt>
      <trkpt lat="47.01108" lon="5.38413">
        <ele>193.843018</ele>
        <time>2011-03-15T14:30:05Z</time>
      </trkpt>
      <trkpt lat="47.01089" lon="5.38286">
        <ele>192.881714</ele>
        <time>2011-03-15T14:30:20Z</time>
      </trkpt>
      <trkpt lat="47.01088" lon="5.38268">
        <ele>192.881714</ele>
        <time>2011-03-15T14:30:23Z</time>
      </trkpt>
      <trkpt lat="47.01069" lon="5.38217">
        <ele>192.881714</ele>
        <time>2011-03-15T14:30:33Z</time>
      </trkpt>
      <trkpt lat="47.01047" lon="5.38161">
        <ele>192.881714</ele>
        <time>2011-03-15T14:30:43Z</time>
      </trkpt>
      <trkpt lat="47.0104" lon="5.38137">
        <ele>192.881714</ele>
        <time>2011-03-15T14:30:47Z</time>
      </trkpt>
      <trkpt lat="47.00989" lon="5.38043">
        <ele>193.362305</ele>
        <time>2011-03-15T14:31:03Z</time>
      </trkpt>
      <trkpt lat="47.00948" lon="5.37954">
        <ele>193.362305</ele>
        <time>2011-03-15T14:31:17Z</time>
      </trkpt>
      <trkpt lat="47.00898" lon="5.37871">
        <ele>192.881714</ele>
        <time>2011-03-15T14:31:33Z</time>
      </trkpt>
      <trkpt lat="47.00856" lon="5.37819">
        <ele>192.881714</ele>
        <time>2011-03-15T14:31:45Z</time>
      </trkpt>
      <trkpt lat="47.00786" lon="5.37775">
        <ele>192.881714</ele>
        <time>2011-03-15T14:32:02Z</time>
      </trkpt>
      <trkpt lat="47.00728" lon="5.37745">
        <ele>193.362305</ele>
        <time>2011-03-15T14:32:18Z</time>
      </trkpt>
      <trkpt lat="47.00667" lon="5.37742">
        <ele>193.843018</ele>
        <time>2011-03-15T14:32:32Z</time>
      </trkpt>
      <trkpt lat="47.00591" lon="5.37741">
        <ele>193.843018</ele>
        <time>2011-03-15T14:32:46Z</time>
      </trkpt>
      <trkpt lat="47.00499" lon="5.37728">
        <ele>193.362305</ele>
        <time>2011-03-15T14:33:04Z</time>
      </trkpt>
      <trkpt lat="47.00427" lon="5.37715">
        <ele>194.32373</ele>
        <time>2011-03-15T14:33:18Z</time>
      </trkpt>
      <trkpt lat="47.00315" lon="5.37686">
        <ele>193.843018</ele>
        <time>2011-03-15T14:33:38Z</time>
      </trkpt>
      <trkpt lat="47.00199" lon="5.37609">
        <ele>194.32373</ele>
        <time>2011-03-15T14:33:59Z</time>
      </trkpt>
      <trkpt lat="47.00065" lon="5.37508">
        <ele>194.32373</ele>
        <time>2011-03-15T14:34:22Z</time>
      </trkpt>
      <trkpt lat="46.99929" lon="5.37412">
        <ele>194.32373</ele>
        <time>2011-03-15T14:34:45Z</time>
      </trkpt>
      <trkpt lat="46.99755" lon="5.37283">
        <ele>193.843018</ele>
        <time>2011-03-15T14:35:15Z</time>
      </trkpt>
      <trkpt lat="46.99635" lon="5.37176">
        <ele>193.843018</ele>
        <time>2011-03-15T14:35:37Z</time>
      </trkpt>
      <trkpt lat="46.99504" lon="5.37093">
        <ele>193.843018</ele>
        <time>2011-03-15T14:35:59Z</time>
      </trkpt>
      <trkpt lat="46.99385" lon="5.37055">
        <ele>193.362305</ele>
        <time>2011-03-15T14:36:18Z</time>
      </trkpt>
      <trkpt lat="46.99314" lon="5.37078">
        <ele>192.881714</ele>
        <time>2011-03-15T14:36:29Z</time>
      </trkpt>
      <trkpt lat="46.99278" lon="5.37047">
        <ele>192.401123</ele>
        <time>2011-03-15T14:36:36Z</time>
      </trkpt>
      <trkpt lat="46.99256" lon="5.36984">
        <ele>191.920288</ele>
        <time>2011-03-15T14:36:44Z</time>
      </trkpt>
      <trkpt lat="46.99253" lon="5.36951">
        <ele>192.401123</ele>
        <time>2011-03-15T14:36:48Z</time>
      </trkpt>
      <trkpt lat="46.99257" lon="5.36898">
        <ele>192.881714</ele>
        <time>2011-03-15T14:36:54Z</time>
      </trkpt>
      <trkpt lat="46.99243" lon="5.36851">
        <ele>192.401123</ele>
        <time>2011-03-15T14:37:00Z</time>
      </trkpt>
      <trkpt lat="46.99178" lon="5.36742">
        <ele>190.958984</ele>
        <time>2011-03-15T14:37:17Z</time>
      </trkpt>
      <trkpt lat="46.99174" lon="5.36736">
        <ele>190.958984</ele>
        <time>2011-03-15T14:37:26Z</time>
      </trkpt>
      <trkpt lat="46.99175" lon="5.36735">
        <ele>191.439575</ele>
        <time>2011-03-15T14:37:56Z</time>
      </trkpt>
      <trkpt lat="46.99164" lon="5.3673">
        <ele>191.439575</ele>
        <time>2011-03-15T14:38:04Z</time>
      </trkpt>
      <trkpt lat="46.99115" lon="5.36746">
        <ele>191.439575</ele>
        <time>2011-03-15T14:38:18Z</time>
      </trkpt>
      <trkpt lat="46.99044" lon="5.36769">
        <ele>191.439575</ele>
        <time>2011-03-15T14:38:31Z</time>
      </trkpt>
      <trkpt lat="46.98991" lon="5.36777">
        <ele>192.401123</ele>
        <time>2011-03-15T14:38:40Z</time>
      </trkpt>
      <trkpt lat="46.98897" lon="5.3675">
        <ele>192.401123</ele>
        <time>2011-03-15T14:38:55Z</time>
      </trkpt>
      <trkpt lat="46.98776" lon="5.36699">
        <ele>192.401123</ele>
        <time>2011-03-15T14:39:16Z</time>
      </trkpt>
      <trkpt lat="46.98683" lon="5.36679">
        <ele>192.881714</ele>
        <time>2011-03-15T14:39:33Z</time>
      </trkpt>
      <trkpt lat="46.98664" lon="5.36664">
        <ele>192.881714</ele>
        <time>2011-03-15T14:39:37Z</time>
      </trkpt>
      <trkpt lat="46.98649" lon="5.36638">
        <ele>192.401123</ele>
        <time>2011-03-15T14:39:41Z</time>
      </trkpt>
      <trkpt lat="46.98575" lon="5.36574">
        <ele>191.920288</ele>
        <time>2011-03-15T14:39:55Z</time>
      </trkpt>
      <trkpt lat="46.98491" lon="5.36526">
        <ele>192.401123</ele>
        <time>2011-03-15T14:40:09Z</time>
      </trkpt>
      <trkpt lat="46.98473" lon="5.36512">
        <ele>192.401123</ele>
        <time>2011-03-15T14:40:12Z</time>
      </trkpt>
      <trkpt lat="46.98381" lon="5.36458">
        <ele>192.401123</ele>
        <time>2011-03-15T14:40:28Z</time>
      </trkpt>
      <trkpt lat="46.98267" lon="5.3638">
        <ele>192.401123</ele>
        <time>2011-03-15T14:40:48Z</time>
      </trkpt>
      <trkpt lat="46.98214" lon="5.36261">
        <ele>191.920288</ele>
        <time>2011-03-15T14:41:03Z</time>
      </trkpt>
      <trkpt lat="46.98144" lon="5.36145">
        <ele>192.401123</ele>
        <time>2011-03-15T14:41:20Z</time>
      </trkpt>
      <trkpt lat="46.98045" lon="5.36101">
        <ele>192.401123</ele>
        <time>2011-03-15T14:41:36Z</time>
      </trkpt>
      <trkpt lat="46.97854" lon="5.36086">
        <ele>191.439575</ele>
        <time>2011-03-15T14:42:04Z</time>
      </trkpt>
      <trkpt lat="46.97673" lon="5.36069">
        <ele>191.439575</ele>
        <time>2011-03-15T14:42:31Z</time>
      </trkpt>
      <trkpt lat="46.97446" lon="5.36052">
        <ele>191.920288</ele>
        <time>2011-03-15T14:43:03Z</time>
      </trkpt>
      <trkpt lat="46.97221" lon="5.36033">
        <ele>192.401123</ele>
        <time>2011-03-15T14:43:34Z</time>
      </trkpt>
      <trkpt lat="46.96925" lon="5.36008">
        <ele>190.958984</ele>
        <time>2011-03-15T14:44:14Z</time>
      </trkpt>
      <trkpt lat="46.96706" lon="5.36">
        <ele>191.439575</ele>
        <time>2011-03-15T14:44:43Z</time>
      </trkpt>
      <trkpt lat="46.96627" lon="5.36045">
        <ele>189.997681</ele>
        <time>2011-03-15T14:44:56Z</time>
      </trkpt>
      <trkpt lat="46.96542" lon="5.36125">
        <ele>190.958984</ele>
        <time>2011-03-15T14:45:14Z</time>
      </trkpt>
      <trkpt lat="46.96432" lon="5.36266">
        <ele>190.478394</ele>
        <time>2011-03-15T14:45:37Z</time>
      </trkpt>
      <trkpt lat="46.96321" lon="5.36365">
        <ele>190.478394</ele>
        <time>2011-03-15T14:45:57Z</time>
      </trkpt>
      <trkpt lat="46.96236" lon="5.36464">
        <ele>190.958984</ele>
        <time>2011-03-15T14:46:13Z</time>
      </trkpt>
      <trkpt lat="46.96161" lon="5.36596">
        <ele>189.997681</ele>
        <time>2011-03-15T14:46:30Z</time>
      </trkpt>
      <trkpt lat="46.961" lon="5.36729">
        <ele>190.478394</ele>
        <time>2011-03-15T14:46:46Z</time>
      </trkpt>
      <trkpt lat="46.96095" lon="5.36737">
        <ele>190.958984</ele>
        <time>2011-03-15T14:46:47Z</time>
      </trkpt>
      <trkpt lat="46.96074" lon="5.3676">
        <ele>190.478394</ele>
        <time>2011-03-15T14:46:51Z</time>
      </trkpt>
      <trkpt lat="46.95976" lon="5.36833">
        <ele>190.958984</ele>
        <time>2011-03-15T14:47:08Z</time>
      </trkpt>
      <trkpt lat="46.95924" lon="5.36944">
        <ele>190.478394</ele>
        <time>2011-03-15T14:47:22Z</time>
      </trkpt>
      <trkpt lat="46.95858" lon="5.37113">
        <ele>190.478394</ele>
        <time>2011-03-15T14:47:41Z</time>
      </trkpt>
      <trkpt lat="46.95818" lon="5.37211">
        <ele>189.997681</ele>
        <time>2011-03-15T14:47:53Z</time>
      </trkpt>
      <trkpt lat="46.95803" lon="5.37248">
        <ele>189.036377</ele>
        <time>2011-03-15T14:48:01Z</time>
      </trkpt>
      <trkpt lat="46.95768" lon="5.37225">
        <ele>189.997681</ele>
        <time>2011-03-15T14:48:15Z</time>
      </trkpt>
      <trkpt lat="46.957" lon="5.37167">
        <ele>190.958984</ele>
        <time>2011-03-15T14:48:33Z</time>
      </trkpt>
      <trkpt lat="46.95676" lon="5.37143">
        <ele>189.997681</ele>
        <time>2011-03-15T14:48:38Z</time>
      </trkpt>
      <trkpt lat="46.95664" lon="5.37126">
        <ele>190.478394</ele>
        <time>2011-03-15T14:48:41Z</time>
      </trkpt>
      <trkpt lat="46.95581" lon="5.37052">
        <ele>190.958984</ele>
        <time>2011-03-15T14:49:01Z</time>
      </trkpt>
      <trkpt lat="46.95552" lon="5.37024">
        <ele>190.478394</ele>
        <time>2011-03-15T14:49:08Z</time>
      </trkpt>
      <trkpt lat="46.95495" lon="5.36971">
        <ele>190.478394</ele>
        <time>2011-03-15T14:49:20Z</time>
      </trkpt>
      <trkpt lat="46.95469" lon="5.36935">
        <ele>190.478394</ele>
        <time>2011-03-15T14:49:26Z</time>
      </trkpt>
      <trkpt lat="46.95457" lon="5.36879">
        <ele>190.478394</ele>
        <time>2011-03-15T14:49:33Z</time>
      </trkpt>
      <trkpt lat="46.95448" lon="5.36696">
        <ele>190.958984</ele>
        <time>2011-03-15T14:49:54Z</time>
      </trkpt>
      <trkpt lat="46.95421" lon="5.36537">
        <ele>191.439575</ele>
        <time>2011-03-15T14:50:12Z</time>
      </trkpt>
      <trkpt lat="46.95359" lon="5.36414">
        <ele>191.439575</ele>
        <time>2011-03-15T14:50:28Z</time>
      </trkpt>
      <trkpt lat="46.95266" lon="5.36331">
        <ele>190.958984</ele>
        <time>2011-03-15T14:50:44Z</time>
      </trkpt>
      <trkpt lat="46.95164" lon="5.36288">
        <ele>191.439575</ele>
        <time>2011-03-15T14:50:59Z</time>
      </trkpt>
      <trkpt lat="46.95057" lon="5.3626">
        <ele>190.958984</ele>
        <time>2011-03-15T14:51:14Z</time>
      </trkpt>
      <trkpt lat="46.94949" lon="5.36135">
        <ele>191.439575</ele>
        <time>2011-03-15T14:51:33Z</time>
      </trkpt>
      <trkpt lat="46.94873" lon="5.36039">
        <ele>190.958984</ele>
        <time>2011-03-15T14:51:48Z</time>
      </trkpt>
      <trkpt lat="46.94776" lon="5.35867">
        <ele>190.478394</ele>
        <time>2011-03-15T14:52:10Z</time>
      </trkpt>
      <trkpt lat="46.94656" lon="5.35613">
        <ele>190.958984</ele>
        <time>2011-03-15T14:52:41Z</time>
      </trkpt>
      <trkpt lat="46.94546" lon="5.35374">
        <ele>190.478394</ele>
        <time>2011-03-15T14:53:10Z</time>
      </trkpt>
      <trkpt lat="46.94443" lon="5.35156">
        <ele>189.516968</ele>
        <time>2011-03-15T14:53:36Z</time>
      </trkpt>
      <trkpt lat="46.94323" lon="5.34951">
        <ele>189.516968</ele>
        <time>2011-03-15T14:54:02Z</time>
      </trkpt>
      <trkpt lat="46.94238" lon="5.34836">
        <ele>189.036377</ele>
        <time>2011-03-15T14:54:19Z</time>
      </trkpt>
      <trkpt lat="46.94104" lon="5.34687">
        <ele>188.555786</ele>
        <time>2011-03-15T14:54:44Z</time>
      </trkpt>
      <trkpt lat="46.93973" lon="5.34569">
        <ele>188.555786</ele>
        <time>2011-03-15T14:55:07Z</time>
      </trkpt>
      <trkpt lat="46.93913" lon="5.34485">
        <ele>189.516968</ele>
        <time>2011-03-15T14:55:20Z</time>
      </trkpt>
      <trkpt lat="46.93891" lon="5.34443">
        <ele>188.075073</ele>
        <time>2011-03-15T14:55:26Z</time>
      </trkpt>
      <trkpt lat="46.93882" lon="5.34422">
        <ele>187.59436</ele>
        <time>2011-03-15T14:55:29Z</time>
      </trkpt>
      <trkpt lat="46.9387" lon="5.34408">
        <ele>187.59436</ele>
        <time>2011-03-15T14:55:32Z</time>
      </trkpt>
      <trkpt lat="46.93859" lon="5.34393">
        <ele>187.11377</ele>
        <time>2011-03-15T14:55:35Z</time>
      </trkpt>
      <trkpt lat="46.93853" lon="5.34378">
        <ele>187.59436</ele>
        <time>2011-03-15T14:55:37Z</time>
      </trkpt>
      <trkpt lat="46.93844" lon="5.34346">
        <ele>187.11377</ele>
        <time>2011-03-15T14:55:41Z</time>
      </trkpt>
      <trkpt lat="46.93842" lon="5.34314">
        <ele>186.633179</ele>
        <time>2011-03-15T14:55:45Z</time>
      </trkpt>
      <trkpt lat="46.93844" lon="5.34299">
        <ele>186.633179</ele>
        <time>2011-03-15T14:55:47Z</time>
      </trkpt>
      <trkpt lat="46.9387" lon="5.3422">
        <ele>186.633179</ele>
        <time>2011-03-15T14:56:01Z</time>
      </trkpt>
      <trkpt lat="46.93893" lon="5.34141">
        <ele>186.633179</ele>
        <time>2011-03-15T14:56:15Z</time>
      </trkpt>
      <trkpt lat="46.9393" lon="5.3399">
        <ele>187.11377</ele>
        <time>2011-03-15T14:56:37Z</time>
      </trkpt>
      <trkpt lat="46.93968" lon="5.33805">
        <ele>186.633179</ele>
        <time>2011-03-15T14:57:00Z</time>
      </trkpt>
      <trkpt lat="46.94002" lon="5.33595">
        <ele>187.11377</ele>
        <time>2011-03-15T14:57:25Z</time>
      </trkpt>
      <trkpt lat="46.94001" lon="5.33394">
        <ele>186.633179</ele>
        <time>2011-03-15T14:57:47Z</time>
      </trkpt>
      <trkpt lat="46.93991" lon="5.33213">
        <ele>186.152466</ele>
        <time>2011-03-15T14:58:07Z</time>
      </trkpt>
      <trkpt lat="46.93979" lon="5.33039">
        <ele>187.11377</ele>
        <time>2011-03-15T14:58:26Z</time>
      </trkpt>
      <trkpt lat="46.93975" lon="5.32977">
        <ele>185.671753</ele>
        <time>2011-03-15T14:58:34Z</time>
      </trkpt>
      <trkpt lat="46.93993" lon="5.32897">
        <ele>186.152466</ele>
        <time>2011-03-15T14:58:48Z</time>
      </trkpt>
      <trkpt lat="46.94046" lon="5.32761">
        <ele>186.633179</ele>
        <time>2011-03-15T14:59:07Z</time>
      </trkpt>
      <trkpt lat="46.9411" lon="5.32588">
        <ele>187.11377</ele>
        <time>2011-03-15T14:59:29Z</time>
      </trkpt>
      <trkpt lat="46.94189" lon="5.32371">
        <ele>187.11377</ele>
        <time>2011-03-15T14:59:55Z</time>
      </trkpt>
      <trkpt lat="46.94218" lon="5.32198">
        <ele>187.59436</ele>
        <time>2011-03-15T15:00:14Z</time>
      </trkpt>
      <trkpt lat="46.94262" lon="5.31986">
        <ele>188.075073</ele>
        <time>2011-03-15T15:00:37Z</time>
      </trkpt>
      <trkpt lat="46.94329" lon="5.31825">
        <ele>187.59436</ele>
        <time>2011-03-15T15:00:56Z</time>
      </trkpt>
      <trkpt lat="46.94415" lon="5.31612">
        <ele>186.633179</ele>
        <time>2011-03-15T15:01:21Z</time>
      </trkpt>
      <trkpt lat="46.94454" lon="5.31442">
        <ele>187.11377</ele>
        <time>2011-03-15T15:01:39Z</time>
      </trkpt>
      <trkpt lat="46.94475" lon="5.31194">
        <ele>185.671753</ele>
        <time>2011-03-15T15:02:02Z</time>
      </trkpt>
      <trkpt lat="46.94495" lon="5.30962">
        <ele>186.152466</ele>
        <time>2011-03-15T15:02:25Z</time>
      </trkpt>
      <trkpt lat="46.94531" lon="5.30778">
        <ele>186.633179</ele>
        <time>2011-03-15T15:02:44Z</time>
      </trkpt>
      <trkpt lat="46.94555" lon="5.30601">
        <ele>185.671753</ele>
        <time>2011-03-15T15:03:03Z</time>
      </trkpt>
      <trkpt lat="46.94553" lon="5.30439">
        <ele>185.671753</ele>
        <time>2011-03-15T15:03:19Z</time>
      </trkpt>
      <trkpt lat="46.94558" lon="5.30234">
        <ele>185.671753</ele>
        <time>2011-03-15T15:03:39Z</time>
      </trkpt>
      <trkpt lat="46.94604" lon="5.30079">
        <ele>185.671753</ele>
        <time>2011-03-15T15:03:55Z</time>
      </trkpt>
      <trkpt lat="46.94652" lon="5.29946">
        <ele>185.671753</ele>
        <time>2011-03-15T15:04:10Z</time>
      </trkpt>
      <trkpt lat="46.94753" lon="5.2973">
        <ele>185.191162</ele>
        <time>2011-03-15T15:04:35Z</time>
      </trkpt>
      <trkpt lat="46.94764" lon="5.29708">
        <ele>185.191162</ele>
        <time>2011-03-15T15:04:38Z</time>
      </trkpt>
      <trkpt lat="46.94775" lon="5.2968">
        <ele>185.191162</ele>
        <time>2011-03-15T15:04:42Z</time>
      </trkpt>
      <trkpt lat="46.94783" lon="5.29659">
        <ele>185.671753</ele>
        <time>2011-03-15T15:04:45Z</time>
      </trkpt>
      <trkpt lat="46.94808" lon="5.29595">
        <ele>184.229858</ele>
        <time>2011-03-15T15:04:56Z</time>
      </trkpt>
      <trkpt lat="46.9482" lon="5.29556">
        <ele>184.229858</ele>
        <time>2011-03-15T15:05:09Z</time>
      </trkpt>
      <trkpt lat="46.94822" lon="5.29553">
        <ele>184.229858</ele>
        <time>2011-03-15T15:05:10Z</time>
      </trkpt>
      <trkpt lat="46.94823" lon="5.29542">
        <ele>184.710571</ele>
        <time>2011-03-15T15:05:15Z</time>
      </trkpt>
      <trkpt lat="46.94837" lon="5.29505">
        <ele>184.229858</ele>
        <time>2011-03-15T15:05:33Z</time>
      </trkpt>
      <trkpt lat="46.94854" lon="5.29456">
        <ele>184.229858</ele>
        <time>2011-03-15T15:05:48Z</time>
      </trkpt>
      <trkpt lat="46.9487" lon="5.29409">
        <ele>184.229858</ele>
        <time>2011-03-15T15:05:59Z</time>
      </trkpt>
      <trkpt lat="46.94897" lon="5.29331">
        <ele>184.229858</ele>
        <time>2011-03-15T15:06:16Z</time>
      </trkpt>
      <trkpt lat="46.94913" lon="5.29291">
        <ele>184.710571</ele>
        <time>2011-03-15T15:06:24Z</time>
      </trkpt>
      <trkpt lat="46.94957" lon="5.29237">
        <ele>184.710571</ele>
        <time>2011-03-15T15:06:37Z</time>
      </trkpt>
      <trkpt lat="46.95024" lon="5.29198">
        <ele>184.710571</ele>
        <time>2011-03-15T15:06:54Z</time>
      </trkpt>
      <trkpt lat="46.95032" lon="5.29192">
        <ele>184.710571</ele>
        <time>2011-03-15T15:06:56Z</time>
      </trkpt>
      <trkpt lat="46.95101" lon="5.29119">
        <ele>184.229858</ele>
        <time>2011-03-15T15:07:13Z</time>
      </trkpt>
      <trkpt lat="46.95185" lon="5.29041">
        <ele>184.229858</ele>
        <time>2011-03-15T15:07:30Z</time>
      </trkpt>
      <trkpt lat="46.95236" lon="5.28947">
        <ele>184.229858</ele>
        <time>2011-03-15T15:07:45Z</time>
      </trkpt>
      <trkpt lat="46.95297" lon="5.28779">
        <ele>184.710571</ele>
        <time>2011-03-15T15:08:07Z</time>
      </trkpt>
      <trkpt lat="46.9532" lon="5.28602">
        <ele>183.749023</ele>
        <time>2011-03-15T15:08:28Z</time>
      </trkpt>
      <trkpt lat="46.95336" lon="5.28398">
        <ele>183.749023</ele>
        <time>2011-03-15T15:08:51Z</time>
      </trkpt>
      <trkpt lat="46.95362" lon="5.28288">
        <ele>184.229858</ele>
        <time>2011-03-15T15:09:05Z</time>
      </trkpt>
      <trkpt lat="46.95391" lon="5.28162">
        <ele>183.749023</ele>
        <time>2011-03-15T15:09:20Z</time>
      </trkpt>
      <trkpt lat="46.95454" lon="5.28039">
        <ele>184.710571</ele>
        <time>2011-03-15T15:09:36Z</time>
      </trkpt>
      <trkpt lat="46.95486" lon="5.2802">
        <ele>183.749023</ele>
        <time>2011-03-15T15:09:43Z</time>
      </trkpt>
      <trkpt lat="46.95489" lon="5.28011">
        <ele>183.268433</ele>
        <time>2011-03-15T15:09:47Z</time>
      </trkpt>
      <trkpt lat="46.9549" lon="5.28015">
        <ele>183.268433</ele>
        <time>2011-03-15T15:09:52Z</time>
      </trkpt>
      <trkpt lat="46.95549" lon="5.28019">
        <ele>183.749023</ele>
        <time>2011-03-15T15:10:07Z</time>
      </trkpt>
      <trkpt lat="46.95564" lon="5.28023">
        <ele>183.749023</ele>
        <time>2011-03-15T15:10:10Z</time>
      </trkpt>
      <trkpt lat="46.95579" lon="5.28017">
        <ele>183.749023</ele>
        <time>2011-03-15T15:10:13Z</time>
      </trkpt>
      <trkpt lat="46.95664" lon="5.27948">
        <ele>183.749023</ele>
        <time>2011-03-15T15:10:32Z</time>
      </trkpt>
      <trkpt lat="46.95723" lon="5.27937">
        <ele>184.229858</ele>
        <time>2011-03-15T15:10:46Z</time>
      </trkpt>
      <trkpt lat="46.95737" lon="5.27907">
        <ele>185.191162</ele>
        <time>2011-03-15T15:10:55Z</time>
      </trkpt>
      <trkpt lat="46.95742" lon="5.27794">
        <ele>186.152466</ele>
        <time>2011-03-15T15:11:13Z</time>
      </trkpt>
      <trkpt lat="46.95753" lon="5.27654">
        <ele>186.633179</ele>
        <time>2011-03-15T15:11:32Z</time>
      </trkpt>
      <trkpt lat="46.95772" lon="5.27631">
        <ele>186.633179</ele>
        <time>2011-03-15T15:11:38Z</time>
      </trkpt>
      <trkpt lat="46.95884" lon="5.2761">
        <ele>186.152466</ele>
        <time>2011-03-15T15:11:58Z</time>
      </trkpt>
      <trkpt lat="46.95977" lon="5.27562">
        <ele>185.191162</ele>
        <time>2011-03-15T15:12:16Z</time>
      </trkpt>
      <trkpt lat="46.95976" lon="5.27513">
        <ele>184.710571</ele>
        <time>2011-03-15T15:12:28Z</time>
      </trkpt>
      <trkpt lat="46.95967" lon="5.27422">
        <ele>184.710571</ele>
        <time>2011-03-15T15:12:42Z</time>
      </trkpt>
      <trkpt lat="46.95972" lon="5.27353">
        <ele>185.191162</ele>
        <time>2011-03-15T15:12:51Z</time>
      </trkpt>
      <trkpt lat="46.95985" lon="5.27328">
        <ele>185.191162</ele>
        <time>2011-03-15T15:12:55Z</time>
      </trkpt>
      <trkpt lat="46.96043" lon="5.27248">
        <ele>184.710571</ele>
        <time>2011-03-15T15:13:09Z</time>
      </trkpt>
      <trkpt lat="46.96069" lon="5.27165">
        <ele>184.229858</ele>
        <time>2011-03-15T15:13:20Z</time>
      </trkpt>
      <trkpt lat="46.96091" lon="5.27146">
        <ele>184.229858</ele>
        <time>2011-03-15T15:13:25Z</time>
      </trkpt>
      <trkpt lat="46.96158" lon="5.27142">
        <ele>184.229858</ele>
        <time>2011-03-15T15:13:37Z</time>
      </trkpt>
      <trkpt lat="46.96172" lon="5.27145">
        <ele>184.710571</ele>
        <time>2011-03-15T15:13:41Z</time>
      </trkpt>
      <trkpt lat="46.96176" lon="5.27151">
        <ele>184.710571</ele>
        <time>2011-03-15T15:13:58Z</time>
      </trkpt>
      <trkpt lat="46.96206" lon="5.2717">
        <ele>184.229858</ele>
        <time>2011-03-15T15:14:09Z</time>
      </trkpt>
      <trkpt lat="46.96271" lon="5.27141">
        <ele>185.191162</ele>
        <time>2011-03-15T15:14:24Z</time>
      </trkpt>
      <trkpt lat="46.96379" lon="5.27134">
        <ele>185.191162</ele>
        <time>2011-03-15T15:14:45Z</time>
      </trkpt>
      <trkpt lat="46.96537" lon="5.2714">
        <ele>185.671753</ele>
        <time>2011-03-15T15:15:13Z</time>
      </trkpt>
      <trkpt lat="46.96705" lon="5.27143">
        <ele>186.152466</ele>
        <time>2011-03-15T15:15:42Z</time>
      </trkpt>
      <trkpt lat="46.96802" lon="5.27097">
        <ele>186.633179</ele>
        <time>2011-03-15T15:15:59Z</time>
      </trkpt>
      <trkpt lat="46.96902" lon="5.27101">
        <ele>185.671753</ele>
        <time>2011-03-15T15:16:16Z</time>
      </trkpt>
      <trkpt lat="46.96994" lon="5.27071">
        <ele>185.671753</ele>
        <time>2011-03-15T15:16:32Z</time>
      </trkpt>
      <trkpt lat="46.9705" lon="5.27049">
        <ele>186.633179</ele>
        <time>2011-03-15T15:16:42Z</time>
      </trkpt>
      <trkpt lat="46.97101" lon="5.27064">
        <ele>186.152466</ele>
        <time>2011-03-15T15:16:51Z</time>
      </trkpt>
      <trkpt lat="46.97125" lon="5.27065">
        <ele>186.633179</ele>
        <time>2011-03-15T15:16:55Z</time>
      </trkpt>
      <trkpt lat="46.97188" lon="5.27007">
        <ele>187.59436</ele>
        <time>2011-03-15T15:17:08Z</time>
      </trkpt>
      <trkpt lat="46.97283" lon="5.26857">
        <ele>188.075073</ele>
        <time>2011-03-15T15:17:32Z</time>
      </trkpt>
      <trkpt lat="46.9743" lon="5.26709">
        <ele>187.59436</ele>
        <time>2011-03-15T15:18:01Z</time>
      </trkpt>
      <trkpt lat="46.9758" lon="5.26635">
        <ele>187.11377</ele>
        <time>2011-03-15T15:18:27Z</time>
      </trkpt>
      <trkpt lat="46.97721" lon="5.26586">
        <ele>187.11377</ele>
        <time>2011-03-15T15:18:51Z</time>
      </trkpt>
      <trkpt lat="46.97837" lon="5.26441">
        <ele>187.11377</ele>
        <time>2011-03-15T15:19:16Z</time>
      </trkpt>
      <trkpt lat="46.97949" lon="5.26318">
        <ele>188.075073</ele>
        <time>2011-03-15T15:19:39Z</time>
      </trkpt>
      <trkpt lat="46.9806" lon="5.26216">
        <ele>187.59436</ele>
        <time>2011-03-15T15:20:00Z</time>
      </trkpt>
      <trkpt lat="46.9817" lon="5.2619">
        <ele>187.59436</ele>
        <time>2011-03-15T15:20:18Z</time>
      </trkpt>
      <trkpt lat="46.98312" lon="5.2615">
        <ele>186.152466</ele>
        <time>2011-03-15T15:20:41Z</time>
      </trkpt>
      <trkpt lat="46.98441" lon="5.26129">
        <ele>187.11377</ele>
        <time>2011-03-15T15:21:02Z</time>
      </trkpt>
      <trkpt lat="46.98573" lon="5.26131">
        <ele>186.152466</ele>
        <time>2011-03-15T15:21:23Z</time>
      </trkpt>
      <trkpt lat="46.98714" lon="5.26115">
        <ele>186.633179</ele>
        <time>2011-03-15T15:21:46Z</time>
      </trkpt>
      <trkpt lat="46.98819" lon="5.26048">
        <ele>188.555786</ele>
        <time>2011-03-15T15:22:06Z</time>
      </trkpt>
      <trkpt lat="46.98901" lon="5.2601">
        <ele>191.439575</ele>
        <time>2011-03-15T15:22:23Z</time>
      </trkpt>
      <trkpt lat="46.98912" lon="5.26013">
        <ele>191.920288</ele>
        <time>2011-03-15T15:22:27Z</time>
      </trkpt>
      <trkpt lat="46.98921" lon="5.26072">
        <ele>193.362305</ele>
        <time>2011-03-15T15:22:41Z</time>
      </trkpt>
      <trkpt lat="46.98928" lon="5.26099">
        <ele>193.843018</ele>
        <time>2011-03-15T15:22:52Z</time>
      </trkpt>
      <trkpt lat="46.98918" lon="5.26097">
        <ele>193.362305</ele>
        <time>2011-03-15T15:23:01Z</time>
      </trkpt>
      <trkpt lat="46.9892" lon="5.26081">
        <ele>193.362305</ele>
        <time>2011-03-15T15:23:13Z</time>
      </trkpt>
      <trkpt lat="46.98914" lon="5.2608">
        <ele>193.843018</ele>
        <time>2011-03-15T15:23:57Z</time>
      </trkpt>
      <trkpt lat="46.98914" lon="5.26072">
        <ele>193.843018</ele>
        <time>2011-03-15T15:24:18Z</time>
      </trkpt>
      <trkpt lat="46.98916" lon="5.26019">
        <ele>193.362305</ele>
        <time>2011-03-15T15:24:31Z</time>
      </trkpt>
      <trkpt lat="46.98942" lon="5.25935">
        <ele>193.362305</ele>
        <time>2011-03-15T15:24:46Z</time>
      </trkpt>
      <trkpt lat="46.98984" lon="5.25822">
        <ele>192.881714</ele>
        <time>2011-03-15T15:25:01Z</time>
      </trkpt>
      <trkpt lat="46.99051" lon="5.25692">
        <ele>194.32373</ele>
        <time>2011-03-15T15:25:21Z</time>
      </trkpt>
      <trkpt lat="46.99061" lon="5.25673">
        <ele>194.32373</ele>
        <time>2011-03-15T15:25:24Z</time>
      </trkpt>
      <trkpt lat="46.99124" lon="5.25551">
        <ele>197.688232</ele>
        <time>2011-03-15T15:25:46Z</time>
      </trkpt>
      <trkpt lat="46.99162" lon="5.25487">
        <ele>198.649536</ele>
        <time>2011-03-15T15:25:58Z</time>
      </trkpt>
      <trkpt lat="46.99206" lon="5.25391">
        <ele>197.688232</ele>
        <time>2011-03-15T15:26:12Z</time>
      </trkpt>
      <trkpt lat="46.99256" lon="5.25233">
        <ele>198.168945</ele>
        <time>2011-03-15T15:26:34Z</time>
      </trkpt>
      <trkpt lat="46.9927" lon="5.25088">
        <ele>198.168945</ele>
        <time>2011-03-15T15:26:51Z</time>
      </trkpt>
      <trkpt lat="46.99274" lon="5.24926">
        <ele>195.284912</ele>
        <time>2011-03-15T15:27:08Z</time>
      </trkpt>
      <trkpt lat="46.99295" lon="5.24784">
        <ele>196.726929</ele>
        <time>2011-03-15T15:27:25Z</time>
      </trkpt>
      <trkpt lat="46.99338" lon="5.24576">
        <ele>195.284912</ele>
        <time>2011-03-15T15:27:49Z</time>
      </trkpt>
      <trkpt lat="46.99351" lon="5.24511">
        <ele>193.362305</ele>
        <time>2011-03-15T15:27:55Z</time>
      </trkpt>
      <trkpt lat="46.99393" lon="5.24307">
        <ele>193.362305</ele>
        <time>2011-03-15T15:28:15Z</time>
      </trkpt>
      <trkpt lat="46.99429" lon="5.24158">
        <ele>196.246338</ele>
        <time>2011-03-15T15:28:33Z</time>
      </trkpt>
      <trkpt lat="46.99491" lon="5.24054">
        <ele>196.246338</ele>
        <time>2011-03-15T15:28:48Z</time>
      </trkpt>
      <trkpt lat="46.99591" lon="5.23957">
        <ele>193.843018</ele>
        <time>2011-03-15T15:29:04Z</time>
      </trkpt>
      <trkpt lat="46.99687" lon="5.23874">
        <ele>191.920288</ele>
        <time>2011-03-15T15:29:17Z</time>
      </trkpt>
      <trkpt lat="46.99796" lon="5.23835">
        <ele>189.516968</ele>
        <time>2011-03-15T15:29:32Z</time>
      </trkpt>
      <trkpt lat="46.99955" lon="5.23783">
        <ele>188.555786</ele>
        <time>2011-03-15T15:29:54Z</time>
      </trkpt>
      <trkpt lat="47.00159" lon="5.23738">
        <ele>189.516968</ele>
        <time>2011-03-15T15:30:22Z</time>
      </trkpt>
      <trkpt lat="47.00291" lon="5.23685">
        <ele>190.478394</ele>
        <time>2011-03-15T15:30:42Z</time>
      </trkpt>
      <trkpt lat="47.00379" lon="5.23615">
        <ele>192.881714</ele>
        <time>2011-03-15T15:30:57Z</time>
      </trkpt>
      <trkpt lat="47.00472" lon="5.23614">
        <ele>192.401123</ele>
        <time>2011-03-15T15:31:12Z</time>
      </trkpt>
      <trkpt lat="47.00515" lon="5.23615">
        <ele>192.881714</ele>
        <time>2011-03-15T15:31:20Z</time>
      </trkpt>
      <trkpt lat="47.00537" lon="5.23616">
        <ele>192.881714</ele>
        <time>2011-03-15T15:31:25Z</time>
      </trkpt>
      <trkpt lat="47.00567" lon="5.23626">
        <ele>191.920288</ele>
        <time>2011-03-15T15:31:37Z</time>
      </trkpt>
      <trkpt lat="47.00574" lon="5.23696">
        <ele>192.401123</ele>
        <time>2011-03-15T15:31:53Z</time>
      </trkpt>
      <trkpt lat="47.00578" lon="5.23749">
        <ele>191.920288</ele>
        <time>2011-03-15T15:32:02Z</time>
      </trkpt>
      <trkpt lat="47.00582" lon="5.23792">
        <ele>191.439575</ele>
        <time>2011-03-15T15:32:08Z</time>
      </trkpt>
      <trkpt lat="47.00592" lon="5.23837">
        <ele>190.958984</ele>
        <time>2011-03-15T15:32:14Z</time>
      </trkpt>
      <trkpt lat="47.00603" lon="5.23866">
        <ele>190.958984</ele>
        <time>2011-03-15T15:32:18Z</time>
      </trkpt>
      <trkpt lat="47.00668" lon="5.23978">
        <ele>190.958984</ele>
        <time>2011-03-15T15:32:37Z</time>
      </trkpt>
      <trkpt lat="47.00734" lon="5.24087">
        <ele>192.401123</ele>
        <time>2011-03-15T15:32:56Z</time>
      </trkpt>
      <trkpt lat="47.00738" lon="5.24092">
        <ele>192.881714</ele>
        <time>2011-03-15T15:32:57Z</time>
      </trkpt>
      <trkpt lat="47.00786" lon="5.24191">
        <ele>193.843018</ele>
        <time>2011-03-15T15:33:14Z</time>
      </trkpt>
      <trkpt lat="47.00806" lon="5.24232">
        <ele>194.32373</ele>
        <time>2011-03-15T15:33:20Z</time>
      </trkpt>
      <trkpt lat="47.0083" lon="5.24257">
        <ele>193.362305</ele>
        <time>2011-03-15T15:33:25Z</time>
      </trkpt>
      <trkpt lat="47.00928" lon="5.24314">
        <ele>190.478394</ele>
        <time>2011-03-15T15:33:40Z</time>
      </trkpt>
      <trkpt lat="47.01027" lon="5.24392">
        <ele>189.036377</ele>
        <time>2011-03-15T15:33:56Z</time>
      </trkpt>
      <trkpt lat="47.01149" lon="5.24501">
        <ele>189.036377</ele>
        <time>2011-03-15T15:34:17Z</time>
      </trkpt>
      <trkpt lat="47.01228" lon="5.24586">
        <ele>188.555786</ele>
        <time>2011-03-15T15:34:32Z</time>
      </trkpt>
      <trkpt lat="47.01245" lon="5.24627">
        <ele>188.555786</ele>
        <time>2011-03-15T15:34:37Z</time>
      </trkpt>
      <trkpt lat="47.0125" lon="5.24645">
        <ele>189.516968</ele>
        <time>2011-03-15T15:34:39Z</time>
      </trkpt>
      <trkpt lat="47.01273" lon="5.24675">
        <ele>189.516968</ele>
        <time>2011-03-15T15:34:45Z</time>
      </trkpt>
      <trkpt lat="47.01402" lon="5.24716">
        <ele>189.036377</ele>
        <time>2011-03-15T15:35:07Z</time>
      </trkpt>
      <trkpt lat="47.01557" lon="5.2474">
        <ele>188.555786</ele>
        <time>2011-03-15T15:35:31Z</time>
      </trkpt>
      <trkpt lat="47.01628" lon="5.24723">
        <ele>189.036377</ele>
        <time>2011-03-15T15:35:42Z</time>
      </trkpt>
      <trkpt lat="47.0168" lon="5.24765">
        <ele>189.516968</ele>
        <time>2011-03-15T15:35:51Z</time>
      </trkpt>
      <trkpt lat="47.01762" lon="5.24904">
        <ele>189.516968</ele>
        <time>2011-03-15T15:36:10Z</time>
      </trkpt>
      <trkpt lat="47.01853" lon="5.24997">
        <ele>190.478394</ele>
        <time>2011-03-15T15:36:28Z</time>
      </trkpt>
      <trkpt lat="47.01959" lon="5.25084">
        <ele>189.036377</ele>
        <time>2011-03-15T15:36:47Z</time>
      </trkpt>
      <trkpt lat="47.01965" lon="5.25088">
        <ele>188.555786</ele>
        <time>2011-03-15T15:36:48Z</time>
      </trkpt>
      <trkpt lat="47.01986" lon="5.25111">
        <ele>189.516968</ele>
        <time>2011-03-15T15:36:52Z</time>
      </trkpt>
      <trkpt lat="47.01992" lon="5.25127">
        <ele>189.036377</ele>
        <time>2011-03-15T15:36:54Z</time>
      </trkpt>
      <trkpt lat="47.0202" lon="5.25157">
        <ele>189.036377</ele>
        <time>2011-03-15T15:37:00Z</time>
      </trkpt>
      <trkpt lat="47.02104" lon="5.25194">
        <ele>189.516968</ele>
        <time>2011-03-15T15:37:14Z</time>
      </trkpt>
      <trkpt lat="47.02127" lon="5.25249">
        <ele>189.516968</ele>
        <time>2011-03-15T15:37:22Z</time>
      </trkpt>
      <trkpt lat="47.02125" lon="5.25275">
        <ele>189.516968</ele>
        <time>2011-03-15T15:37:25Z</time>
      </trkpt>
      <trkpt lat="47.02128" lon="5.25348">
        <ele>189.036377</ele>
        <time>2011-03-15T15:37:34Z</time>
      </trkpt>
      <trkpt lat="47.02135" lon="5.25409">
        <ele>189.036377</ele>
        <time>2011-03-15T15:37:42Z</time>
      </trkpt>
      <trkpt lat="47.02157" lon="5.25446">
        <ele>189.516968</ele>
        <time>2011-03-15T15:37:51Z</time>
      </trkpt>
      <trkpt lat="47.02162" lon="5.25446">
        <ele>189.516968</ele>
        <time>2011-03-15T15:37:52Z</time>
      </trkpt>
      <trkpt lat="47.02184" lon="5.25439">
        <ele>190.958984</ele>
        <time>2011-03-15T15:37:57Z</time>
      </trkpt>
      <trkpt lat="47.02192" lon="5.2544">
        <ele>191.439575</ele>
        <time>2011-03-15T15:37:59Z</time>
      </trkpt>
      <trkpt lat="47.02214" lon="5.25435">
        <ele>191.920288</ele>
        <time>2011-03-15T15:38:05Z</time>
      </trkpt>
      <trkpt lat="47.0226" lon="5.25433">
        <ele>194.804321</ele>
        <time>2011-03-15T15:38:15Z</time>
      </trkpt>
      <trkpt lat="47.02293" lon="5.25421">
        <ele>196.246338</ele>
        <time>2011-03-15T15:38:21Z</time>
      </trkpt>
      <trkpt lat="47.02329" lon="5.25424">
        <ele>197.688232</ele>
        <time>2011-03-15T15:38:28Z</time>
      </trkpt>
      <trkpt lat="47.02388" lon="5.2547">
        <ele>197.688232</ele>
        <time>2011-03-15T15:38:45Z</time>
      </trkpt>
      <trkpt lat="47.02402" lon="5.25486">
        <ele>196.246338</ele>
        <time>2011-03-15T15:38:56Z</time>
      </trkpt>
      <trkpt lat="47.02402" lon="5.25486">
        <ele>196.726929</ele>
        <time>2011-03-15T15:40:14Z</time>
      </trkpt>
      <trkpt lat="47.02398" lon="5.25482">
        <ele>197.20752</ele>
        <time>2011-03-15T15:40:18Z</time>
      </trkpt>
      <trkpt lat="47.02395" lon="5.25479">
        <ele>197.20752</ele>
        <time>2011-03-15T15:40:41Z</time>
      </trkpt>
      <trkpt lat="47.02394" lon="5.25477">
        <ele>199.130127</ele>
        <time>2011-03-15T15:45:02Z</time>
      </trkpt>
      <trkpt lat="47.02401" lon="5.25482">
        <ele>199.130127</ele>
        <time>2011-03-15T15:45:07Z</time>
      </trkpt>
      <trkpt lat="47.02459" lon="5.25498">
        <ele>198.168945</ele>
        <time>2011-03-15T15:45:25Z</time>
      </trkpt>
      <trkpt lat="47.02544" lon="5.2549">
        <ele>198.649536</ele>
        <time>2011-03-15T15:45:41Z</time>
      </trkpt>
      <trkpt lat="47.02694" lon="5.25443">
        <ele>197.688232</ele>
        <time>2011-03-15T15:46:06Z</time>
      </trkpt>
      <trkpt lat="47.02706" lon="5.25441">
        <ele>197.688232</ele>
        <time>2011-03-15T15:46:08Z</time>
      </trkpt>
      <trkpt lat="47.02746" lon="5.25484">
        <ele>195.284912</ele>
        <time>2011-03-15T15:46:16Z</time>
      </trkpt>
      <trkpt lat="47.0275" lon="5.25531">
        <ele>193.362305</ele>
        <time>2011-03-15T15:46:20Z</time>
      </trkpt>
      <trkpt lat="47.02749" lon="5.25555">
        <ele>193.843018</ele>
        <time>2011-03-15T15:46:22Z</time>
      </trkpt>
      <trkpt lat="47.02773" lon="5.25632">
        <ele>192.881714</ele>
        <time>2011-03-15T15:46:30Z</time>
      </trkpt>
      <trkpt lat="47.02798" lon="5.25646">
        <ele>193.362305</ele>
        <time>2011-03-15T15:46:34Z</time>
      </trkpt>
      <trkpt lat="47.02935" lon="5.25679">
        <ele>193.843018</ele>
        <time>2011-03-15T15:46:56Z</time>
      </trkpt>
      <trkpt lat="47.03091" lon="5.25695">
        <ele>193.362305</ele>
        <time>2011-03-15T15:47:20Z</time>
      </trkpt>
      <trkpt lat="47.03249" lon="5.25762">
        <ele>194.804321</ele>
        <time>2011-03-15T15:47:46Z</time>
      </trkpt>
      <trkpt lat="47.03386" lon="5.25863">
        <ele>193.843018</ele>
        <time>2011-03-15T15:48:10Z</time>
      </trkpt>
      <trkpt lat="47.03532" lon="5.26033">
        <ele>194.804321</ele>
        <time>2011-03-15T15:48:39Z</time>
      </trkpt>
      <trkpt lat="47.03632" lon="5.26121">
        <ele>196.726929</ele>
        <time>2011-03-15T15:48:59Z</time>
      </trkpt>
      <trkpt lat="47.03716" lon="5.26231">
        <ele>200.091675</ele>
        <time>2011-03-15T15:49:19Z</time>
      </trkpt>
      <trkpt lat="47.03844" lon="5.26374">
        <ele>200.091675</ele>
        <time>2011-03-15T15:49:48Z</time>
      </trkpt>
      <trkpt lat="47.03959" lon="5.26439">
        <ele>201.052856</ele>
        <time>2011-03-15T15:50:10Z</time>
      </trkpt>
      <trkpt lat="47.04063" lon="5.26446">
        <ele>201.052856</ele>
        <time>2011-03-15T15:50:30Z</time>
      </trkpt>
      <trkpt lat="47.04189" lon="5.26408">
        <ele>202.494873</ele>
        <time>2011-03-15T15:50:53Z</time>
      </trkpt>
      <trkpt lat="47.0432" lon="5.26388">
        <ele>201.533569</ele>
        <time>2011-03-15T15:51:15Z</time>
      </trkpt>
      <trkpt lat="47.0446" lon="5.26471">
        <ele>202.014282</ele>
        <time>2011-03-15T15:51:40Z</time>
      </trkpt>
      <trkpt lat="47.04558" lon="5.26572">
        <ele>200.091675</ele>
        <time>2011-03-15T15:52:00Z</time>
      </trkpt>
      <trkpt lat="47.04613" lon="5.26643">
        <ele>197.20752</ele>
        <time>2011-03-15T15:52:13Z</time>
      </trkpt>
      <trkpt lat="47.04675" lon="5.26726">
        <ele>195.284912</ele>
        <time>2011-03-15T15:52:26Z</time>
      </trkpt>
      <trkpt lat="47.04704" lon="5.26766">
        <ele>190.958984</ele>
        <time>2011-03-15T15:52:31Z</time>
      </trkpt>
      <trkpt lat="47.0471" lon="5.26775">
        <ele>194.32373</ele>
        <time>2011-03-15T15:52:32Z</time>
      </trkpt>
      <trkpt lat="47.04791" lon="5.26901">
        <ele>190.958984</ele>
        <time>2011-03-15T15:52:49Z</time>
      </trkpt>
      <trkpt lat="47.04863" lon="5.26966">
        <ele>190.958984</ele>
        <time>2011-03-15T15:53:02Z</time>
      </trkpt>
      <trkpt lat="47.04978" lon="5.26998">
        <ele>190.958984</ele>
        <time>2011-03-15T15:53:20Z</time>
      </trkpt>
      <trkpt lat="47.05085" lon="5.27039">
        <ele>189.997681</ele>
        <time>2011-03-15T15:53:39Z</time>
      </trkpt>
      <trkpt lat="47.05189" lon="5.27041">
        <ele>189.036377</ele>
        <time>2011-03-15T15:53:58Z</time>
      </trkpt>
      <trkpt lat="47.05308" lon="5.27041">
        <ele>189.516968</ele>
        <time>2011-03-15T15:54:18Z</time>
      </trkpt>
      <trkpt lat="47.05335" lon="5.27069">
        <ele>189.516968</ele>
        <time>2011-03-15T15:54:24Z</time>
      </trkpt>
      <trkpt lat="47.05337" lon="5.27259">
        <ele>189.516968</ele>
        <time>2011-03-15T15:54:46Z</time>
      </trkpt>
      <trkpt lat="47.05329" lon="5.27455">
        <ele>189.516968</ele>
        <time>2011-03-15T15:55:08Z</time>
      </trkpt>
      <trkpt lat="47.0535" lon="5.27613">
        <ele>189.997681</ele>
        <time>2011-03-15T15:55:26Z</time>
      </trkpt>
      <trkpt lat="47.05359" lon="5.27784">
        <ele>190.478394</ele>
        <time>2011-03-15T15:55:46Z</time>
      </trkpt>
      <trkpt lat="47.05361" lon="5.27801">
        <ele>190.478394</ele>
        <time>2011-03-15T15:55:48Z</time>
      </trkpt>
      <trkpt lat="47.05393" lon="5.27849">
        <ele>189.036377</ele>
        <time>2011-03-15T15:55:56Z</time>
      </trkpt>
      <trkpt lat="47.05564" lon="5.27886">
        <ele>189.036377</ele>
        <time>2011-03-15T15:56:24Z</time>
      </trkpt>
      <trkpt lat="47.05681" lon="5.27913">
        <ele>189.036377</ele>
        <time>2011-03-15T15:56:44Z</time>
      </trkpt>
      <trkpt lat="47.05826" lon="5.27944">
        <ele>189.036377</ele>
        <time>2011-03-15T15:57:09Z</time>
      </trkpt>
      <trkpt lat="47.05949" lon="5.27962">
        <ele>189.036377</ele>
        <time>2011-03-15T15:57:30Z</time>
      </trkpt>
      <trkpt lat="47.05971" lon="5.27951">
        <ele>188.555786</ele>
        <time>2011-03-15T15:57:34Z</time>
      </trkpt>
      <trkpt lat="47.06009" lon="5.27897">
        <ele>189.516968</ele>
        <time>2011-03-15T15:57:43Z</time>
      </trkpt>
      <trkpt lat="47.06018" lon="5.27862">
        <ele>189.036377</ele>
        <time>2011-03-15T15:57:47Z</time>
      </trkpt>
      <trkpt lat="47.06049" lon="5.27632">
        <ele>189.036377</ele>
        <time>2011-03-15T15:58:12Z</time>
      </trkpt>
      <trkpt lat="47.0609" lon="5.27564">
        <ele>189.036377</ele>
        <time>2011-03-15T15:58:22Z</time>
      </trkpt>
      <trkpt lat="47.0612" lon="5.27549">
        <ele>189.516968</ele>
        <time>2011-03-15T15:58:27Z</time>
      </trkpt>
      <trkpt lat="47.06146" lon="5.27549">
        <ele>189.036377</ele>
        <time>2011-03-15T15:58:31Z</time>
      </trkpt>
      <trkpt lat="47.06201" lon="5.27561">
        <ele>190.478394</ele>
        <time>2011-03-15T15:58:40Z</time>
      </trkpt>
      <trkpt lat="47.06281" lon="5.27527">
        <ele>189.997681</ele>
        <time>2011-03-15T15:58:54Z</time>
      </trkpt>
      <trkpt lat="47.06363" lon="5.27527">
        <ele>190.958984</ele>
        <time>2011-03-15T15:59:08Z</time>
      </trkpt>
      <trkpt lat="47.06468" lon="5.27529">
        <ele>192.881714</ele>
        <time>2011-03-15T15:59:27Z</time>
      </trkpt>
      <trkpt lat="47.0655" lon="5.27565">
        <ele>192.881714</ele>
        <time>2011-03-15T15:59:41Z</time>
      </trkpt>
      <trkpt lat="47.06662" lon="5.27598">
        <ele>192.881714</ele>
        <time>2011-03-15T15:59:59Z</time>
      </trkpt>
      <trkpt lat="47.06736" lon="5.27593">
        <ele>192.881714</ele>
        <time>2011-03-15T16:00:11Z</time>
      </trkpt>
      <trkpt lat="47.06762" lon="5.27582">
        <ele>192.401123</ele>
        <time>2011-03-15T16:00:15Z</time>
      </trkpt>
      <trkpt lat="47.0685" lon="5.27503">
        <ele>191.439575</ele>
        <time>2011-03-15T16:00:31Z</time>
      </trkpt>
      <trkpt lat="47.07009" lon="5.27402">
        <ele>190.958984</ele>
        <time>2011-03-15T16:00:57Z</time>
      </trkpt>
      <trkpt lat="47.07119" lon="5.27388">
        <ele>190.478394</ele>
        <time>2011-03-15T16:01:14Z</time>
      </trkpt>
      <trkpt lat="47.07302" lon="5.27358">
        <ele>190.958984</ele>
        <time>2011-03-15T16:01:43Z</time>
      </trkpt>
      <trkpt lat="47.07457" lon="5.27277">
        <ele>189.997681</ele>
        <time>2011-03-15T16:02:07Z</time>
      </trkpt>
      <trkpt lat="47.07584" lon="5.2721">
        <ele>190.478394</ele>
        <time>2011-03-15T16:02:28Z</time>
      </trkpt>
      <trkpt lat="47.07703" lon="5.27184">
        <ele>189.997681</ele>
        <time>2011-03-15T16:02:46Z</time>
      </trkpt>
      <trkpt lat="47.07854" lon="5.27182">
        <ele>190.478394</ele>
        <time>2011-03-15T16:03:10Z</time>
      </trkpt>
      <trkpt lat="47.07919" lon="5.2719">
        <ele>189.516968</ele>
        <time>2011-03-15T16:03:22Z</time>
      </trkpt>
      <trkpt lat="47.07937" lon="5.27182">
        <ele>189.516968</ele>
        <time>2011-03-15T16:03:26Z</time>
      </trkpt>
      <trkpt lat="47.07954" lon="5.27193">
        <ele>189.997681</ele>
        <time>2011-03-15T16:03:32Z</time>
      </trkpt>
      <trkpt lat="47.0796" lon="5.27206">
        <ele>189.036377</ele>
        <time>2011-03-15T16:03:36Z</time>
      </trkpt>
      <trkpt lat="47.07977" lon="5.27207">
        <ele>189.516968</ele>
        <time>2011-03-15T16:03:40Z</time>
      </trkpt>
      <trkpt lat="47.08085" lon="5.27163">
        <ele>189.516968</ele>
        <time>2011-03-15T16:03:59Z</time>
      </trkpt>
      <trkpt lat="47.08192" lon="5.27077">
        <ele>188.555786</ele>
        <time>2011-03-15T16:04:17Z</time>
      </trkpt>
      <trkpt lat="47.08378" lon="5.26925">
        <ele>187.59436</ele>
        <time>2011-03-15T16:04:47Z</time>
      </trkpt>
      <trkpt lat="47.08549" lon="5.26821">
        <ele>188.555786</ele>
        <time>2011-03-15T16:05:14Z</time>
      </trkpt>
      <trkpt lat="47.08654" lon="5.26809">
        <ele>190.478394</ele>
        <time>2011-03-15T16:05:31Z</time>
      </trkpt>
      <trkpt lat="47.08718" lon="5.26852">
        <ele>191.920288</ele>
        <time>2011-03-15T16:05:44Z</time>
      </trkpt>
      <trkpt lat="47.08761" lon="5.26887">
        <ele>191.920288</ele>
        <time>2011-03-15T16:05:53Z</time>
      </trkpt>
      <trkpt lat="47.08773" lon="5.26914">
        <ele>190.958984</ele>
        <time>2011-03-15T16:05:57Z</time>
      </trkpt>
      <trkpt lat="47.08818" lon="5.27092">
        <ele>189.997681</ele>
        <time>2011-03-15T16:06:19Z</time>
      </trkpt>
      <trkpt lat="47.08862" lon="5.27287">
        <ele>189.516968</ele>
        <time>2011-03-15T16:06:43Z</time>
      </trkpt>
      <trkpt lat="47.08871" lon="5.27326">
        <ele>189.036377</ele>
        <time>2011-03-15T16:06:50Z</time>
      </trkpt>
      <trkpt lat="47.08883" lon="5.27327">
        <ele>189.036377</ele>
        <time>2011-03-15T16:06:54Z</time>
      </trkpt>
      <trkpt lat="47.08927" lon="5.27294">
        <ele>189.516968</ele>
        <time>2011-03-15T16:07:05Z</time>
      </trkpt>
      <trkpt lat="47.08954" lon="5.27291">
        <ele>189.516968</ele>
        <time>2011-03-15T16:07:10Z</time>
      </trkpt>
      <trkpt lat="47.08991" lon="5.27306">
        <ele>189.036377</ele>
        <time>2011-03-15T16:07:17Z</time>
      </trkpt>
      <trkpt lat="47.0901" lon="5.2732">
        <ele>189.516968</ele>
        <time>2011-03-15T16:07:21Z</time>
      </trkpt>
      <trkpt lat="47.09051" lon="5.27313">
        <ele>190.478394</ele>
        <time>2011-03-15T16:07:29Z</time>
      </trkpt>
      <trkpt lat="47.09115" lon="5.27208">
        <ele>190.478394</ele>
        <time>2011-03-15T16:07:46Z</time>
      </trkpt>
      <trkpt lat="47.09179" lon="5.27128">
        <ele>188.555786</ele>
        <time>2011-03-15T16:08:04Z</time>
      </trkpt>
      <trkpt lat="47.09181" lon="5.27128">
        <ele>188.075073</ele>
        <time>2011-03-15T16:08:14Z</time>
      </trkpt>
      <trkpt lat="47.09198" lon="5.27175">
        <ele>188.555786</ele>
        <time>2011-03-15T16:08:30Z</time>
      </trkpt>
      <trkpt lat="47.09226" lon="5.2727">
        <ele>190.478394</ele>
        <time>2011-03-15T16:08:48Z</time>
      </trkpt>
      <trkpt lat="47.09271" lon="5.27383">
        <ele>190.958984</ele>
        <time>2011-03-15T16:09:05Z</time>
      </trkpt>
      <trkpt lat="47.09334" lon="5.2756">
        <ele>189.036377</ele>
        <time>2011-03-15T16:09:27Z</time>
      </trkpt>
      <trkpt lat="47.09337" lon="5.27568">
        <ele>189.036377</ele>
        <time>2011-03-15T16:09:28Z</time>
      </trkpt>
      <trkpt lat="47.09354" lon="5.27592">
        <ele>189.036377</ele>
        <time>2011-03-15T16:09:32Z</time>
      </trkpt>
      <trkpt lat="47.09438" lon="5.27683">
        <ele>189.036377</ele>
        <time>2011-03-15T16:09:49Z</time>
      </trkpt>
      <trkpt lat="47.09478" lon="5.27809">
        <ele>191.439575</ele>
        <time>2011-03-15T16:10:06Z</time>
      </trkpt>
      <trkpt lat="47.09536" lon="5.27972">
        <ele>190.478394</ele>
        <time>2011-03-15T16:10:27Z</time>
      </trkpt>
      <trkpt lat="47.09581" lon="5.28126">
        <ele>189.036377</ele>
        <time>2011-03-15T16:10:46Z</time>
      </trkpt>
      <trkpt lat="47.09616" lon="5.28268">
        <ele>188.075073</ele>
        <time>2011-03-15T16:11:03Z</time>
      </trkpt>
      <trkpt lat="47.0967" lon="5.28448">
        <ele>190.478394</ele>
        <time>2011-03-15T16:11:26Z</time>
      </trkpt>
      <trkpt lat="47.09688" lon="5.28527">
        <ele>192.401123</ele>
        <time>2011-03-15T16:11:36Z</time>
      </trkpt>
      <trkpt lat="47.09708" lon="5.2863">
        <ele>194.32373</ele>
        <time>2011-03-15T16:11:49Z</time>
      </trkpt>
      <trkpt lat="47.09719" lon="5.28767">
        <ele>193.843018</ele>
        <time>2011-03-15T16:12:06Z</time>
      </trkpt>
      <trkpt lat="47.09742" lon="5.28979">
        <ele>193.843018</ele>
        <time>2011-03-15T16:12:31Z</time>
      </trkpt>
      <trkpt lat="47.0981" lon="5.29121">
        <ele>192.881714</ele>
        <time>2011-03-15T16:12:50Z</time>
      </trkpt>
      <trkpt lat="47.09895" lon="5.29233">
        <ele>192.881714</ele>
        <time>2011-03-15T16:13:08Z</time>
      </trkpt>
      <trkpt lat="47.09942" lon="5.29356">
        <ele>191.920288</ele>
        <time>2011-03-15T16:13:23Z</time>
      </trkpt>
      <trkpt lat="47.09963" lon="5.29428">
        <ele>192.401123</ele>
        <time>2011-03-15T16:13:31Z</time>
      </trkpt>
      <trkpt lat="47.10006" lon="5.29577">
        <ele>192.881714</ele>
        <time>2011-03-15T16:13:50Z</time>
      </trkpt>
      <trkpt lat="47.10033" lon="5.29756">
        <ele>194.32373</ele>
        <time>2011-03-15T16:14:12Z</time>
      </trkpt>
      <trkpt lat="47.10073" lon="5.29873">
        <ele>193.843018</ele>
        <time>2011-03-15T16:14:28Z</time>
      </trkpt>
      <trkpt lat="47.10091" lon="5.29927">
        <ele>192.881714</ele>
        <time>2011-03-15T16:14:35Z</time>
      </trkpt>
      <trkpt lat="47.10114" lon="5.30048">
        <ele>192.401123</ele>
        <time>2011-03-15T16:14:50Z</time>
      </trkpt>
      <trkpt lat="47.10121" lon="5.3007">
        <ele>192.401123</ele>
        <time>2011-03-15T16:14:53Z</time>
      </trkpt>
      <trkpt lat="47.10131" lon="5.3009">
        <ele>191.920288</ele>
        <time>2011-03-15T16:14:56Z</time>
      </trkpt>
      <trkpt lat="47.10144" lon="5.30105">
        <ele>191.920288</ele>
        <time>2011-03-15T16:14:59Z</time>
      </trkpt>
      <trkpt lat="47.10162" lon="5.30121">
        <ele>191.439575</ele>
        <time>2011-03-15T16:15:03Z</time>
      </trkpt>
      <trkpt lat="47.10191" lon="5.30172">
        <ele>190.958984</ele>
        <time>2011-03-15T16:15:11Z</time>
      </trkpt>
      <trkpt lat="47.10217" lon="5.30295">
        <ele>190.478394</ele>
        <time>2011-03-15T16:15:27Z</time>
      </trkpt>
      <trkpt lat="47.10244" lon="5.30459">
        <ele>189.516968</ele>
        <time>2011-03-15T16:15:45Z</time>
      </trkpt>
      <trkpt lat="47.10235" lon="5.30597">
        <ele>191.920288</ele>
        <time>2011-03-15T16:16:02Z</time>
      </trkpt>
      <trkpt lat="47.10223" lon="5.30773">
        <ele>193.362305</ele>
        <time>2011-03-15T16:16:26Z</time>
      </trkpt>
      <trkpt lat="47.10231" lon="5.30916">
        <ele>192.881714</ele>
        <time>2011-03-15T16:16:44Z</time>
      </trkpt>
      <trkpt lat="47.10214" lon="5.31071">
        <ele>192.881714</ele>
        <time>2011-03-15T16:17:02Z</time>
      </trkpt>
      <trkpt lat="47.10168" lon="5.31216">
        <ele>192.401123</ele>
        <time>2011-03-15T16:17:19Z</time>
      </trkpt>
      <trkpt lat="47.10093" lon="5.31422">
        <ele>190.958984</ele>
        <time>2011-03-15T16:17:43Z</time>
      </trkpt>
      <trkpt lat="47.10031" lon="5.31597">
        <ele>190.478394</ele>
        <time>2011-03-15T16:18:03Z</time>
      </trkpt>
      <trkpt lat="47.10038" lon="5.31674">
        <ele>190.958984</ele>
        <time>2011-03-15T16:18:11Z</time>
      </trkpt>
      <trkpt lat="47.10066" lon="5.31731">
        <ele>193.843018</ele>
        <time>2011-03-15T16:18:21Z</time>
      </trkpt>
      <trkpt lat="47.10075" lon="5.31743">
        <ele>195.284912</ele>
        <time>2011-03-15T16:18:24Z</time>
      </trkpt>
      <trkpt lat="47.10134" lon="5.31815">
        <ele>192.881714</ele>
        <time>2011-03-15T16:18:38Z</time>
      </trkpt>
      <trkpt lat="47.1015" lon="5.31836">
        <ele>191.439575</ele>
        <time>2011-03-15T16:18:41Z</time>
      </trkpt>
      <trkpt lat="47.10236" lon="5.31942">
        <ele>190.958984</ele>
        <time>2011-03-15T16:18:58Z</time>
      </trkpt>
      <trkpt lat="47.10346" lon="5.32068">
        <ele>192.881714</ele>
        <time>2011-03-15T16:19:23Z</time>
      </trkpt>
      <trkpt lat="47.10456" lon="5.32208">
        <ele>194.32373</ele>
        <time>2011-03-15T16:19:48Z</time>
      </trkpt>
      <trkpt lat="47.10547" lon="5.32344">
        <ele>194.804321</ele>
        <time>2011-03-15T16:20:09Z</time>
      </trkpt>
      <trkpt lat="47.10605" lon="5.3251">
        <ele>194.804321</ele>
        <time>2011-03-15T16:20:30Z</time>
      </trkpt>
      <trkpt lat="47.10665" lon="5.32705">
        <ele>195.765625</ele>
        <time>2011-03-15T16:20:54Z</time>
      </trkpt>
      <trkpt lat="47.1069" lon="5.32794">
        <ele>199.130127</ele>
        <time>2011-03-15T16:21:07Z</time>
      </trkpt>
      <trkpt lat="47.10759" lon="5.33004">
        <ele>201.533569</ele>
        <time>2011-03-15T16:21:36Z</time>
      </trkpt>
      <trkpt lat="47.10793" lon="5.33084">
        <ele>202.014282</ele>
        <time>2011-03-15T16:21:52Z</time>
      </trkpt>
      <trkpt lat="47.10842" lon="5.33199">
        <ele>203.456177</ele>
        <time>2011-03-15T16:22:12Z</time>
      </trkpt>
      <trkpt lat="47.10887" lon="5.33332">
        <ele>203.456177</ele>
        <time>2011-03-15T16:22:32Z</time>
      </trkpt>
      <trkpt lat="47.10934" lon="5.33505">
        <ele>202.975464</ele>
        <time>2011-03-15T16:22:57Z</time>
      </trkpt>
      <trkpt lat="47.10991" lon="5.33709">
        <ele>202.494873</ele>
        <time>2011-03-15T16:23:25Z</time>
      </trkpt>
      <trkpt lat="47.1107" lon="5.339">
        <ele>202.014282</ele>
        <time>2011-03-15T16:23:50Z</time>
      </trkpt>
      <trkpt lat="47.11162" lon="5.34092">
        <ele>200.572266</ele>
        <time>2011-03-15T16:24:16Z</time>
      </trkpt>
      <trkpt lat="47.11172" lon="5.34111">
        <ele>200.572266</ele>
        <time>2011-03-15T16:24:19Z</time>
      </trkpt>
      <trkpt lat="47.11167" lon="5.34151">
        <ele>200.091675</ele>
        <time>2011-03-15T16:24:26Z</time>
      </trkpt>
      <trkpt lat="47.11113" lon="5.3419">
        <ele>199.130127</ele>
        <time>2011-03-15T16:24:45Z</time>
      </trkpt>
      <trkpt lat="47.11058" lon="5.34238">
        <ele>198.168945</ele>
        <time>2011-03-15T16:25:02Z</time>
      </trkpt>
      <trkpt lat="47.10974" lon="5.34356">
        <ele>196.246338</ele>
        <time>2011-03-15T16:25:22Z</time>
      </trkpt>
      <trkpt lat="47.10914" lon="5.34454">
        <ele>193.362305</ele>
        <time>2011-03-15T16:25:36Z</time>
      </trkpt>
      <trkpt lat="47.10799" lon="5.34566">
        <ele>192.881714</ele>
        <time>2011-03-15T16:25:57Z</time>
      </trkpt>
      <trkpt lat="47.10793" lon="5.34572">
        <ele>192.401123</ele>
        <time>2011-03-15T16:25:58Z</time>
      </trkpt>
      <trkpt lat="47.10745" lon="5.34677">
        <ele>192.401123</ele>
        <time>2011-03-15T16:26:12Z</time>
      </trkpt>
      <trkpt lat="47.10682" lon="5.34887">
        <ele>192.401123</ele>
        <time>2011-03-15T16:26:37Z</time>
      </trkpt>
      <trkpt lat="47.10651" lon="5.35041">
        <ele>195.765625</ele>
        <time>2011-03-15T16:26:56Z</time>
      </trkpt>
      <trkpt lat="47.1065" lon="5.35047">
        <ele>195.765625</ele>
        <time>2011-03-15T16:26:57Z</time>
      </trkpt>
      <trkpt lat="47.10647" lon="5.35066">
        <ele>196.246338</ele>
        <time>2011-03-15T16:27:00Z</time>
      </trkpt>
      <trkpt lat="47.10632" lon="5.35124">
        <ele>199.130127</ele>
        <time>2011-03-15T16:27:09Z</time>
      </trkpt>
      <trkpt lat="47.1059" lon="5.35235">
        <ele>201.533569</ele>
        <time>2011-03-15T16:27:27Z</time>
      </trkpt>
      <trkpt lat="47.10543" lon="5.35342">
        <ele>202.014282</ele>
        <time>2011-03-15T16:27:44Z</time>
      </trkpt>
      <trkpt lat="47.10502" lon="5.35368">
        <ele>202.014282</ele>
        <time>2011-03-15T16:27:53Z</time>
      </trkpt>
      <trkpt lat="47.1046" lon="5.35355">
        <ele>202.494873</ele>
        <time>2011-03-15T16:28:01Z</time>
      </trkpt>
      <trkpt lat="47.10381" lon="5.3528">
        <ele>200.091675</ele>
        <time>2011-03-15T16:28:16Z</time>
      </trkpt>
      <trkpt lat="47.10324" lon="5.35272">
        <ele>199.130127</ele>
        <time>2011-03-15T16:28:24Z</time>
      </trkpt>
      <trkpt lat="47.10311" lon="5.35282">
        <ele>199.130127</ele>
        <time>2011-03-15T16:28:26Z</time>
      </trkpt>
      <trkpt lat="47.10228" lon="5.3536">
        <ele>201.052856</ele>
        <time>2011-03-15T16:28:41Z</time>
      </trkpt>
      <trkpt lat="47.10193" lon="5.35367">
        <ele>201.052856</ele>
        <time>2011-03-15T16:28:47Z</time>
      </trkpt>
      <trkpt lat="47.10092" lon="5.35351">
        <ele>200.091675</ele>
        <time>2011-03-15T16:29:03Z</time>
      </trkpt>
      <trkpt lat="47.09984" lon="5.35365">
        <ele>199.61084</ele>
        <time>2011-03-15T16:29:19Z</time>
      </trkpt>
      <trkpt lat="47.09958" lon="5.35378">
        <ele>200.091675</ele>
        <time>2011-03-15T16:29:24Z</time>
      </trkpt>
      <trkpt lat="47.09838" lon="5.35454">
        <ele>201.052856</ele>
        <time>2011-03-15T16:29:46Z</time>
      </trkpt>
      <trkpt lat="47.09782" lon="5.355">
        <ele>203.456177</ele>
        <time>2011-03-15T16:29:57Z</time>
      </trkpt>
      <trkpt lat="47.09726" lon="5.35551">
        <ele>206.820679</ele>
        <time>2011-03-15T16:30:10Z</time>
      </trkpt>
      <trkpt lat="47.09635" lon="5.35632">
        <ele>208.262817</ele>
        <time>2011-03-15T16:30:33Z</time>
      </trkpt>
      <trkpt lat="47.0957" lon="5.35689">
        <ele>204.898071</ele>
        <time>2011-03-15T16:30:45Z</time>
      </trkpt>
      <trkpt lat="47.0952" lon="5.35734">
        <ele>202.014282</ele>
        <time>2011-03-15T16:30:52Z</time>
      </trkpt>
      <trkpt lat="47.09472" lon="5.35781">
        <ele>200.091675</ele>
        <time>2011-03-15T16:30:58Z</time>
      </trkpt>
      <trkpt lat="47.09424" lon="5.35858">
        <ele>196.246338</ele>
        <time>2011-03-15T16:31:05Z</time>
      </trkpt>
      <trkpt lat="47.09419" lon="5.35871">
        <ele>196.726929</ele>
        <time>2011-03-15T16:31:06Z</time>
      </trkpt>
      <trkpt lat="47.09406" lon="5.35909">
        <ele>194.804321</ele>
        <time>2011-03-15T16:31:09Z</time>
      </trkpt>
      <trkpt lat="47.09391" lon="5.35956">
        <ele>194.804321</ele>
        <time>2011-03-15T16:31:13Z</time>
      </trkpt>
      <trkpt lat="47.09328" lon="5.36056">
        <ele>196.726929</ele>
        <time>2011-03-15T16:31:26Z</time>
      </trkpt>
      <trkpt lat="47.09301" lon="5.36106">
        <ele>200.572266</ele>
        <time>2011-03-15T16:31:33Z</time>
      </trkpt>
      <trkpt lat="47.09297" lon="5.36114">
        <ele>201.052856</ele>
        <time>2011-03-15T16:31:34Z</time>
      </trkpt>
      <trkpt lat="47.09276" lon="5.3615">
        <ele>201.052856</ele>
        <time>2011-03-15T16:31:39Z</time>
      </trkpt>
      <trkpt lat="47.09243" lon="5.3619">
        <ele>202.014282</ele>
        <time>2011-03-15T16:31:49Z</time>
      </trkpt>
      <trkpt lat="47.09218" lon="5.36194">
        <ele>202.014282</ele>
        <time>2011-03-15T16:31:55Z</time>
      </trkpt>
      <trkpt lat="47.09137" lon="5.3615">
        <ele>202.014282</ele>
        <time>2011-03-15T16:32:14Z</time>
      </trkpt>
      <trkpt lat="47.09069" lon="5.36104">
        <ele>202.014282</ele>
        <time>2011-03-15T16:32:31Z</time>
      </trkpt>
      <trkpt lat="47.08978" lon="5.36026">
        <ele>201.533569</ele>
        <time>2011-03-15T16:32:53Z</time>
      </trkpt>
      <trkpt lat="47.08899" lon="5.3596">
        <ele>200.572266</ele>
        <time>2011-03-15T16:33:11Z</time>
      </trkpt>
      <trkpt lat="47.08788" lon="5.35876">
        <ele>198.649536</ele>
        <time>2011-03-15T16:33:32Z</time>
      </trkpt>
      <trkpt lat="47.08682" lon="5.35807">
        <ele>195.284912</ele>
        <time>2011-03-15T16:33:49Z</time>
      </trkpt>
      <trkpt lat="47.08566" lon="5.35748">
        <ele>192.401123</ele>
        <time>2011-03-15T16:34:05Z</time>
      </trkpt>
      <trkpt lat="47.0844" lon="5.35654">
        <ele>191.439575</ele>
        <time>2011-03-15T16:34:24Z</time>
      </trkpt>
      <trkpt lat="47.0839" lon="5.35615">
        <ele>194.804321</ele>
        <time>2011-03-15T16:34:37Z</time>
      </trkpt>
      <trkpt lat="47.0834" lon="5.35592">
        <ele>193.362305</ele>
        <time>2011-03-15T16:34:51Z</time>
      </trkpt>
      <trkpt lat="47.08271" lon="5.35589">
        <ele>191.920288</ele>
        <time>2011-03-15T16:35:02Z</time>
      </trkpt>
      <trkpt lat="47.08131" lon="5.35635">
        <ele>192.401123</ele>
        <time>2011-03-15T16:35:23Z</time>
      </trkpt>
      <trkpt lat="47.0797" lon="5.3569">
        <ele>191.920288</ele>
        <time>2011-03-15T16:35:47Z</time>
      </trkpt>
      <trkpt lat="47.07832" lon="5.35737">
        <ele>190.958984</ele>
        <time>2011-03-15T16:36:05Z</time>
      </trkpt>
      <trkpt lat="47.07694" lon="5.35781">
        <ele>191.920288</ele>
        <time>2011-03-15T16:36:24Z</time>
      </trkpt>
      <trkpt lat="47.07553" lon="5.35828">
        <ele>191.920288</ele>
        <time>2011-03-15T16:36:45Z</time>
      </trkpt>
      <trkpt lat="47.07448" lon="5.35897">
        <ele>191.920288</ele>
        <time>2011-03-15T16:37:01Z</time>
      </trkpt>
      <trkpt lat="47.07429" lon="5.35911">
        <ele>191.920288</ele>
        <time>2011-03-15T16:37:04Z</time>
      </trkpt>
      <trkpt lat="47.07396" lon="5.35966">
        <ele>191.920288</ele>
        <time>2011-03-15T16:37:11Z</time>
      </trkpt>
      <trkpt lat="47.0735" lon="5.36117">
        <ele>192.881714</ele>
        <time>2011-03-15T16:37:27Z</time>
      </trkpt>
      <trkpt lat="47.07285" lon="5.36229">
        <ele>192.881714</ele>
        <time>2011-03-15T16:37:42Z</time>
      </trkpt>
      <trkpt lat="47.07205" lon="5.36319">
        <ele>191.439575</ele>
        <time>2011-03-15T16:37:58Z</time>
      </trkpt>
      <trkpt lat="47.07181" lon="5.36367">
        <ele>191.439575</ele>
        <time>2011-03-15T16:38:10Z</time>
      </trkpt>
      <trkpt lat="47.07153" lon="5.36464">
        <ele>190.958984</ele>
        <time>2011-03-15T16:38:26Z</time>
      </trkpt>
      <trkpt lat="47.07111" lon="5.36572">
        <ele>191.439575</ele>
        <time>2011-03-15T16:38:42Z</time>
      </trkpt>
      <trkpt lat="47.07068" lon="5.36726">
        <ele>190.478394</ele>
        <time>2011-03-15T16:39:02Z</time>
      </trkpt>
      <trkpt lat="47.07012" lon="5.36884">
        <ele>191.439575</ele>
        <time>2011-03-15T16:39:23Z</time>
      </trkpt>
      <trkpt lat="47.0701" lon="5.36891">
        <ele>191.439575</ele>
        <time>2011-03-15T16:39:24Z</time>
      </trkpt>
      <trkpt lat="47.07023" lon="5.36926">
        <ele>190.958984</ele>
        <time>2011-03-15T16:39:30Z</time>
      </trkpt>
      <trkpt lat="47.07094" lon="5.36974">
        <ele>192.401123</ele>
        <time>2011-03-15T16:39:48Z</time>
      </trkpt>
      <trkpt lat="47.07146" lon="5.37009">
        <ele>192.401123</ele>
        <time>2011-03-15T16:40:04Z</time>
      </trkpt>
      <trkpt lat="47.07227" lon="5.37069">
        <ele>191.439575</ele>
        <time>2011-03-15T16:40:20Z</time>
      </trkpt>
      <trkpt lat="47.07306" lon="5.37127">
        <ele>191.920288</ele>
        <time>2011-03-15T16:40:36Z</time>
      </trkpt>
      <trkpt lat="47.07378" lon="5.37232">
        <ele>191.920288</ele>
        <time>2011-03-15T16:40:54Z</time>
      </trkpt>
      <trkpt lat="47.07381" lon="5.37237">
        <ele>191.920288</ele>
        <time>2011-03-15T16:40:55Z</time>
      </trkpt>
      <trkpt lat="47.074" lon="5.37274">
        <ele>191.920288</ele>
        <time>2011-03-15T16:41:00Z</time>
      </trkpt>
      <trkpt lat="47.07417" lon="5.37322">
        <ele>191.439575</ele>
        <time>2011-03-15T16:41:06Z</time>
      </trkpt>
      <trkpt lat="47.07428" lon="5.37356">
        <ele>191.920288</ele>
        <time>2011-03-15T16:41:10Z</time>
      </trkpt>
      <trkpt lat="47.07446" lon="5.37417">
        <ele>192.401123</ele>
        <time>2011-03-15T16:41:17Z</time>
      </trkpt>
      <trkpt lat="47.07469" lon="5.37603">
        <ele>192.401123</ele>
        <time>2011-03-15T16:41:35Z</time>
      </trkpt>
      <trkpt lat="47.07477" lon="5.3768">
        <ele>191.920288</ele>
        <time>2011-03-15T16:41:43Z</time>
      </trkpt>
      <trkpt lat="47.07492" lon="5.37812">
        <ele>192.881714</ele>
        <time>2011-03-15T16:41:59Z</time>
      </trkpt>
      <trkpt lat="47.07501" lon="5.37958">
        <ele>192.881714</ele>
        <time>2011-03-15T16:42:17Z</time>
      </trkpt>
      <trkpt lat="47.07522" lon="5.38171">
        <ele>192.401123</ele>
        <time>2011-03-15T16:42:40Z</time>
      </trkpt>
      <trkpt lat="47.07536" lon="5.38288">
        <ele>192.401123</ele>
        <time>2011-03-15T16:42:55Z</time>
      </trkpt>
      <trkpt lat="47.07566" lon="5.38538">
        <ele>192.881714</ele>
        <time>2011-03-15T16:43:22Z</time>
      </trkpt>
      <trkpt lat="47.07593" lon="5.38721">
        <ele>192.881714</ele>
        <time>2011-03-15T16:43:42Z</time>
      </trkpt>
      <trkpt lat="47.07632" lon="5.38852">
        <ele>192.881714</ele>
        <time>2011-03-15T16:43:57Z</time>
      </trkpt>
      <trkpt lat="47.07727" lon="5.39076">
        <ele>194.804321</ele>
        <time>2011-03-15T16:44:24Z</time>
      </trkpt>
      <trkpt lat="47.07737" lon="5.39097">
        <ele>195.765625</ele>
        <time>2011-03-15T16:44:27Z</time>
      </trkpt>
      <trkpt lat="47.07742" lon="5.39135">
        <ele>196.726929</ele>
        <time>2011-03-15T16:44:32Z</time>
      </trkpt>
      <trkpt lat="47.07721" lon="5.39328">
        <ele>197.688232</ele>
        <time>2011-03-15T16:44:55Z</time>
      </trkpt>
      <trkpt lat="47.07697" lon="5.3957">
        <ele>198.168945</ele>
        <time>2011-03-15T16:45:21Z</time>
      </trkpt>
      <trkpt lat="47.0768" lon="5.39702">
        <ele>201.052856</ele>
        <time>2011-03-15T16:45:37Z</time>
      </trkpt>
      <trkpt lat="47.07652" lon="5.39893">
        <ele>203.93689</ele>
        <time>2011-03-15T16:46:03Z</time>
      </trkpt>
      <trkpt lat="47.07631" lon="5.40051">
        <ele>204.41748</ele>
        <time>2011-03-15T16:46:25Z</time>
      </trkpt>
      <trkpt lat="47.07607" lon="5.40246">
        <ele>205.378784</ele>
        <time>2011-03-15T16:46:50Z</time>
      </trkpt>
      <trkpt lat="47.07583" lon="5.40425">
        <ele>204.898071</ele>
        <time>2011-03-15T16:47:11Z</time>
      </trkpt>
      <trkpt lat="47.07567" lon="5.40564">
        <ele>202.014282</ele>
        <time>2011-03-15T16:47:24Z</time>
      </trkpt>
      <trkpt lat="47.07551" lon="5.40696">
        <ele>203.456177</ele>
        <time>2011-03-15T16:47:38Z</time>
      </trkpt>
      <trkpt lat="47.07547" lon="5.40726">
        <ele>204.41748</ele>
        <time>2011-03-15T16:47:42Z</time>
      </trkpt>
      <trkpt lat="47.07541" lon="5.40792">
        <ele>204.41748</ele>
        <time>2011-03-15T16:47:51Z</time>
      </trkpt>
      <trkpt lat="47.07533" lon="5.40821">
        <ele>205.859497</ele>
        <time>2011-03-15T16:47:56Z</time>
      </trkpt>
      <trkpt lat="47.07508" lon="5.40868">
        <ele>204.41748</ele>
        <time>2011-03-15T16:48:03Z</time>
      </trkpt>
      <trkpt lat="47.07473" lon="5.40935">
        <ele>202.975464</ele>
        <time>2011-03-15T16:48:11Z</time>
      </trkpt>
      <trkpt lat="47.07454" lon="5.41011">
        <ele>202.494873</ele>
        <time>2011-03-15T16:48:18Z</time>
      </trkpt>
      <trkpt lat="47.0746" lon="5.4105">
        <ele>202.975464</ele>
        <time>2011-03-15T16:48:23Z</time>
      </trkpt>
      <trkpt lat="47.07534" lon="5.41126">
        <ele>205.859497</ele>
        <time>2011-03-15T16:48:40Z</time>
      </trkpt>
      <trkpt lat="47.07544" lon="5.41171">
        <ele>206.820679</ele>
        <time>2011-03-15T16:48:50Z</time>
      </trkpt>
      <trkpt lat="47.07534" lon="5.41214">
        <ele>207.782104</ele>
        <time>2011-03-15T16:49:04Z</time>
      </trkpt>
      <trkpt lat="47.07534" lon="5.41215">
        <ele>207.782104</ele>
        <time>2011-03-15T16:49:55Z</time>
      </trkpt>
      <trkpt lat="47.07533" lon="5.41221">
        <ele>207.782104</ele>
        <time>2011-03-15T16:51:33Z</time>
      </trkpt>
      <trkpt lat="47.07516" lon="5.41238">
        <ele>208.743408</ele>
        <time>2011-03-15T16:51:46Z</time>
      </trkpt>
      <trkpt lat="47.07473" lon="5.41275">
        <ele>210.185425</ele>
        <time>2011-03-15T16:52:01Z</time>
      </trkpt>
      <trkpt lat="47.07401" lon="5.41314">
        <ele>211.146729</ele>
        <time>2011-03-15T16:52:18Z</time>
      </trkpt>
      <trkpt lat="47.07389" lon="5.4132">
        <ele>211.146729</ele>
        <time>2011-03-15T16:52:21Z</time>
      </trkpt>
      <trkpt lat="47.07356" lon="5.41317">
        <ele>211.146729</ele>
        <time>2011-03-15T16:52:27Z</time>
      </trkpt>
      <trkpt lat="47.07217" lon="5.41238">
        <ele>209.704834</ele>
        <time>2011-03-15T16:52:52Z</time>
      </trkpt>
      <trkpt lat="47.07142" lon="5.4124">
        <ele>210.185425</ele>
        <time>2011-03-15T16:53:06Z</time>
      </trkpt>
      <trkpt lat="47.07016" lon="5.41309">
        <ele>212.108032</ele>
        <time>2011-03-15T16:53:32Z</time>
      </trkpt>
      <trkpt lat="47.06995" lon="5.41332">
        <ele>212.588623</ele>
        <time>2011-03-15T16:53:37Z</time>
      </trkpt>
      <trkpt lat="47.06968" lon="5.41336">
        <ele>212.588623</ele>
        <time>2011-03-15T16:53:42Z</time>
      </trkpt>
      <trkpt lat="47.06887" lon="5.41376">
        <ele>213.069336</ele>
        <time>2011-03-15T16:53:58Z</time>
      </trkpt>
      <trkpt lat="47.0676" lon="5.41442">
        <ele>213.550049</ele>
        <time>2011-03-15T16:54:22Z</time>
      </trkpt>
      <trkpt lat="47.06755" lon="5.41446">
        <ele>213.550049</ele>
        <time>2011-03-15T16:54:23Z</time>
      </trkpt>
      <trkpt lat="47.06725" lon="5.41454">
        <ele>213.069336</ele>
        <time>2011-03-15T16:54:28Z</time>
      </trkpt>
      <trkpt lat="47.06641" lon="5.4149">
        <ele>213.550049</ele>
        <time>2011-03-15T16:54:43Z</time>
      </trkpt>
      <trkpt lat="47.06545" lon="5.41533">
        <ele>214.03064</ele>
        <time>2011-03-15T16:55:03Z</time>
      </trkpt>
      <trkpt lat="47.06461" lon="5.4157">
        <ele>213.069336</ele>
        <time>2011-03-15T16:55:21Z</time>
      </trkpt>
      <trkpt lat="47.06384" lon="5.416">
        <ele>213.069336</ele>
        <time>2011-03-15T16:55:36Z</time>
      </trkpt>
      <trkpt lat="47.06378" lon="5.41601">
        <ele>213.069336</ele>
        <time>2011-03-15T16:55:37Z</time>
      </trkpt>
      <trkpt lat="47.06307" lon="5.41571">
        <ele>211.146729</ele>
        <time>2011-03-15T16:55:50Z</time>
      </trkpt>
      <trkpt lat="47.06282" lon="5.41591">
        <ele>210.185425</ele>
        <time>2011-03-15T16:55:57Z</time>
      </trkpt>
      <trkpt lat="47.06243" lon="5.41706">
        <ele>209.704834</ele>
        <time>2011-03-15T16:56:15Z</time>
      </trkpt>
      <trkpt lat="47.06209" lon="5.4186">
        <ele>207.301392</ele>
        <time>2011-03-15T16:56:33Z</time>
      </trkpt>
      <trkpt lat="47.06181" lon="5.42">
        <ele>204.41748</ele>
        <time>2011-03-15T16:56:47Z</time>
      </trkpt>
      <trkpt lat="47.06178" lon="5.42081">
        <ele>203.456177</ele>
        <time>2011-03-15T16:56:55Z</time>
      </trkpt>
      <trkpt lat="47.06177" lon="5.42109">
        <ele>203.456177</ele>
        <time>2011-03-15T16:56:58Z</time>
      </trkpt>
      <trkpt lat="47.06176" lon="5.4223">
        <ele>203.456177</ele>
        <time>2011-03-15T16:57:11Z</time>
      </trkpt>
      <trkpt lat="47.0618" lon="5.42266">
        <ele>203.456177</ele>
        <time>2011-03-15T16:57:15Z</time>
      </trkpt>
      <trkpt lat="47.06222" lon="5.42426">
        <ele>201.052856</ele>
        <time>2011-03-15T16:57:33Z</time>
      </trkpt>
      <trkpt lat="47.06276" lon="5.42627">
        <ele>202.014282</ele>
        <time>2011-03-15T16:57:58Z</time>
      </trkpt>
      <trkpt lat="47.06264" lon="5.42671">
        <ele>201.052856</ele>
        <time>2011-03-15T16:58:05Z</time>
      </trkpt>
      <trkpt lat="47.06256" lon="5.42674">
        <ele>201.052856</ele>
        <time>2011-03-15T16:58:07Z</time>
      </trkpt>
      <trkpt lat="47.06241" lon="5.42674">
        <ele>201.052856</ele>
        <time>2011-03-15T16:58:10Z</time>
      </trkpt>
      <trkpt lat="47.06121" lon="5.42675">
        <ele>198.649536</ele>
        <time>2011-03-15T16:58:31Z</time>
      </trkpt>
      <trkpt lat="47.05988" lon="5.42676">
        <ele>200.091675</ele>
        <time>2011-03-15T16:58:53Z</time>
      </trkpt>
      <trkpt lat="47.05976" lon="5.42679">
        <ele>201.052856</ele>
        <time>2011-03-15T16:58:57Z</time>
      </trkpt>
      <trkpt lat="47.05971" lon="5.42729">
        <ele>199.61084</ele>
        <time>2011-03-15T16:59:05Z</time>
      </trkpt>
      <trkpt lat="47.05969" lon="5.4282">
        <ele>198.649536</ele>
        <time>2011-03-15T16:59:16Z</time>
      </trkpt>
      <trkpt lat="47.05966" lon="5.42917">
        <ele>198.649536</ele>
        <time>2011-03-15T16:59:30Z</time>
      </trkpt>
      <trkpt lat="47.05961" lon="5.42948">
        <ele>198.649536</ele>
        <time>2011-03-15T16:59:34Z</time>
      </trkpt>
      <trkpt lat="47.05961" lon="5.42971">
        <ele>198.649536</ele>
        <time>2011-03-15T16:59:37Z</time>
      </trkpt>
      <trkpt lat="47.05966" lon="5.42994">
        <ele>198.649536</ele>
        <time>2011-03-15T16:59:40Z</time>
      </trkpt>
      <trkpt lat="47.05968" lon="5.43055">
        <ele>199.130127</ele>
        <time>2011-03-15T16:59:48Z</time>
      </trkpt>
      <trkpt lat="47.0597" lon="5.43184">
        <ele>199.130127</ele>
        <time>2011-03-15T17:00:04Z</time>
      </trkpt>
      <trkpt lat="47.05972" lon="5.43413">
        <ele>199.130127</ele>
        <time>2011-03-15T17:00:30Z</time>
      </trkpt>
      <trkpt lat="47.05974" lon="5.43658">
        <ele>200.091675</ele>
        <time>2011-03-15T17:00:59Z</time>
      </trkpt>
      <trkpt lat="47.05977" lon="5.43701">
        <ele>199.61084</ele>
        <time>2011-03-15T17:01:05Z</time>
      </trkpt>
      <trkpt lat="47.05976" lon="5.43771">
        <ele>199.130127</ele>
        <time>2011-03-15T17:01:14Z</time>
      </trkpt>
      <trkpt lat="47.0596" lon="5.4382">
        <ele>199.130127</ele>
        <time>2011-03-15T17:01:21Z</time>
      </trkpt>
      <trkpt lat="47.05904" lon="5.43899">
        <ele>199.130127</ele>
        <time>2011-03-15T17:01:37Z</time>
      </trkpt>
      <trkpt lat="47.05892" lon="5.43914">
        <ele>199.130127</ele>
        <time>2011-03-15T17:01:40Z</time>
      </trkpt>
      <trkpt lat="47.05821" lon="5.44015">
        <ele>199.130127</ele>
        <time>2011-03-15T17:01:58Z</time>
      </trkpt>
      <trkpt lat="47.05796" lon="5.44047">
        <ele>198.649536</ele>
        <time>2011-03-15T17:02:04Z</time>
      </trkpt>
      <trkpt lat="47.05726" lon="5.44142">
        <ele>198.649536</ele>
        <time>2011-03-15T17:02:24Z</time>
      </trkpt>
      <trkpt lat="47.0568" lon="5.44198">
        <ele>199.130127</ele>
        <time>2011-03-15T17:02:35Z</time>
      </trkpt>
      <trkpt lat="47.05659" lon="5.44207">
        <ele>198.649536</ele>
        <time>2011-03-15T17:02:39Z</time>
      </trkpt>
      <trkpt lat="47.05637" lon="5.4423">
        <ele>198.649536</ele>
        <time>2011-03-15T17:02:44Z</time>
      </trkpt>
      <trkpt lat="47.0563" lon="5.44252">
        <ele>200.572266</ele>
        <time>2011-03-15T17:02:47Z</time>
      </trkpt>
      <trkpt lat="47.05628" lon="5.44257">
        <ele>200.572266</ele>
        <time>2011-03-15T17:02:48Z</time>
      </trkpt>
      <trkpt lat="47.05609" lon="5.44278">
        <ele>201.052856</ele>
        <time>2011-03-15T17:02:53Z</time>
      </trkpt>
      <trkpt lat="47.05566" lon="5.44337">
        <ele>201.052856</ele>
        <time>2011-03-15T17:03:05Z</time>
      </trkpt>
      <trkpt lat="47.05556" lon="5.44364">
        <ele>200.572266</ele>
        <time>2011-03-15T17:03:09Z</time>
      </trkpt>
      <trkpt lat="47.05553" lon="5.44387">
        <ele>201.052856</ele>
        <time>2011-03-15T17:03:12Z</time>
      </trkpt>
      <trkpt lat="47.05553" lon="5.44428">
        <ele>201.052856</ele>
        <time>2011-03-15T17:03:17Z</time>
      </trkpt>
      <trkpt lat="47.05589" lon="5.44545">
        <ele>201.052856</ele>
        <time>2011-03-15T17:03:34Z</time>
      </trkpt>
      <trkpt lat="47.05625" lon="5.44665">
        <ele>201.533569</ele>
        <time>2011-03-15T17:03:51Z</time>
      </trkpt>
      <trkpt lat="47.05688" lon="5.44863">
        <ele>201.533569</ele>
        <time>2011-03-15T17:04:16Z</time>
      </trkpt>
      <trkpt lat="47.05759" lon="5.45095">
        <ele>201.533569</ele>
        <time>2011-03-15T17:04:44Z</time>
      </trkpt>
      <trkpt lat="47.05813" lon="5.45262">
        <ele>201.533569</ele>
        <time>2011-03-15T17:05:04Z</time>
      </trkpt>
      <trkpt lat="47.05875" lon="5.4546">
        <ele>201.052856</ele>
        <time>2011-03-15T17:05:28Z</time>
      </trkpt>
      <trkpt lat="47.05927" lon="5.45628">
        <ele>201.052856</ele>
        <time>2011-03-15T17:05:49Z</time>
      </trkpt>
      <trkpt lat="47.0598" lon="5.45791">
        <ele>200.091675</ele>
        <time>2011-03-15T17:06:09Z</time>
      </trkpt>
      <trkpt lat="47.06051" lon="5.4603">
        <ele>200.091675</ele>
        <time>2011-03-15T17:06:38Z</time>
      </trkpt>
      <trkpt lat="47.06053" lon="5.46037">
        <ele>200.091675</ele>
        <time>2011-03-15T17:06:39Z</time>
      </trkpt>
      <trkpt lat="47.06062" lon="5.46056">
        <ele>199.61084</ele>
        <time>2011-03-15T17:06:42Z</time>
      </trkpt>
      <trkpt lat="47.06082" lon="5.46088">
        <ele>199.130127</ele>
        <time>2011-03-15T17:06:53Z</time>
      </trkpt>
      <trkpt lat="47.06081" lon="5.46089">
        <ele>198.649536</ele>
        <time>2011-03-15T17:08:10Z</time>
      </trkpt>
      <trkpt lat="47.06081" lon="5.4609">
        <ele>199.130127</ele>
        <time>2011-03-15T17:08:19Z</time>
      </trkpt>
      <trkpt lat="47.0608" lon="5.46086">
        <ele>199.130127</ele>
        <time>2011-03-15T17:08:22Z</time>
      </trkpt>
      <trkpt lat="47.06078" lon="5.46085">
        <ele>198.649536</ele>
        <time>2011-03-15T17:08:24Z</time>
      </trkpt>
      <trkpt lat="47.06076" lon="5.46082">
        <ele>198.649536</ele>
        <time>2011-03-15T17:08:26Z</time>
      </trkpt>
      <trkpt lat="47.06083" lon="5.4608">
        <ele>199.61084</ele>
        <time>2011-03-15T17:08:33Z</time>
      </trkpt>
      <trkpt lat="47.06076" lon="5.46075">
        <ele>199.130127</ele>
        <time>2011-03-15T17:08:37Z</time>
      </trkpt>
      <trkpt lat="47.06071" lon="5.46065">
        <ele>199.130127</ele>
        <time>2011-03-15T17:08:40Z</time>
      </trkpt>
      <trkpt lat="47.06073" lon="5.46068">
        <ele>199.130127</ele>
        <time>2011-03-15T17:08:45Z</time>
      </trkpt>
      <trkpt lat="47.06094" lon="5.46087">
        <ele>202.494873</ele>
        <time>2011-03-15T17:08:53Z</time>
      </trkpt>
      <trkpt lat="47.06096" lon="5.4609">
        <ele>202.975464</ele>
        <time>2011-03-15T17:08:55Z</time>
      </trkpt>
      <trkpt lat="47.06098" lon="5.46101">
        <ele>202.975464</ele>
        <time>2011-03-15T17:08:59Z</time>
      </trkpt>
      <trkpt lat="47.06072" lon="5.46163">
        <ele>201.052856</ele>
        <time>2011-03-15T17:09:09Z</time>
      </trkpt>
      <trkpt lat="47.06046" lon="5.46202">
        <ele>200.091675</ele>
        <time>2011-03-15T17:09:14Z</time>
      </trkpt>
      <trkpt lat="47.05948" lon="5.4628">
        <ele>197.688232</ele>
        <time>2011-03-15T17:09:30Z</time>
      </trkpt>
      <trkpt lat="47.05856" lon="5.4635">
        <ele>197.20752</ele>
        <time>2011-03-15T17:09:46Z</time>
      </trkpt>
      <trkpt lat="47.05776" lon="5.46345">
        <ele>197.688232</ele>
        <time>2011-03-15T17:09:59Z</time>
      </trkpt>
      <trkpt lat="47.05642" lon="5.46324">
        <ele>197.688232</ele>
        <time>2011-03-15T17:10:21Z</time>
      </trkpt>
      <trkpt lat="47.05604" lon="5.46318">
        <ele>198.649536</ele>
        <time>2011-03-15T17:10:27Z</time>
      </trkpt>
      <trkpt lat="47.05592" lon="5.46318">
        <ele>199.130127</ele>
        <time>2011-03-15T17:10:29Z</time>
      </trkpt>
      <trkpt lat="47.05539" lon="5.46343">
        <ele>201.052856</ele>
        <time>2011-03-15T17:10:39Z</time>
      </trkpt>
      <trkpt lat="47.055" lon="5.46388">
        <ele>201.052856</ele>
        <time>2011-03-15T17:10:54Z</time>
      </trkpt>
      <trkpt lat="47.05469" lon="5.4642">
        <ele>201.533569</ele>
        <time>2011-03-15T17:11:10Z</time>
      </trkpt>
      <trkpt lat="47.05423" lon="5.46468">
        <ele>200.572266</ele>
        <time>2011-03-15T17:11:24Z</time>
      </trkpt>
      <trkpt lat="47.05347" lon="5.46535">
        <ele>198.649536</ele>
        <time>2011-03-15T17:11:40Z</time>
      </trkpt>
      <trkpt lat="47.0525" lon="5.46625">
        <ele>197.688232</ele>
        <time>2011-03-15T17:11:58Z</time>
      </trkpt>
      <trkpt lat="47.05151" lon="5.46741">
        <ele>197.20752</ele>
        <time>2011-03-15T17:12:19Z</time>
      </trkpt>
      <trkpt lat="47.05038" lon="5.46874">
        <ele>197.20752</ele>
        <time>2011-03-15T17:12:42Z</time>
      </trkpt>
      <trkpt lat="47.04937" lon="5.46973">
        <ele>197.20752</ele>
        <time>2011-03-15T17:13:01Z</time>
      </trkpt>
      <trkpt lat="47.04801" lon="5.47022">
        <ele>197.688232</ele>
        <time>2011-03-15T17:13:22Z</time>
      </trkpt>
      <trkpt lat="47.04694" lon="5.4706">
        <ele>196.726929</ele>
        <time>2011-03-15T17:13:39Z</time>
      </trkpt>
      <trkpt lat="47.04636" lon="5.47081">
        <ele>197.20752</ele>
        <time>2011-03-15T17:13:49Z</time>
      </trkpt>
      <trkpt lat="47.04504" lon="5.47108">
        <ele>196.726929</ele>
        <time>2011-03-15T17:14:08Z</time>
      </trkpt>
      <trkpt lat="47.04353" lon="5.47151">
        <ele>196.726929</ele>
        <time>2011-03-15T17:14:32Z</time>
      </trkpt>
      <trkpt lat="47.04334" lon="5.47155">
        <ele>196.246338</ele>
        <time>2011-03-15T17:14:35Z</time>
      </trkpt>
      <trkpt lat="47.04305" lon="5.47205">
        <ele>197.688232</ele>
        <time>2011-03-15T17:14:43Z</time>
      </trkpt>
      <trkpt lat="47.04302" lon="5.47252">
        <ele>197.688232</ele>
        <time>2011-03-15T17:14:49Z</time>
      </trkpt>
      <trkpt lat="47.0428" lon="5.47329">
        <ele>197.20752</ele>
        <time>2011-03-15T17:15:01Z</time>
      </trkpt>
      <trkpt lat="47.04288" lon="5.47365">
        <ele>196.726929</ele>
        <time>2011-03-15T17:15:08Z</time>
      </trkpt>
      <trkpt lat="47.0438" lon="5.47434">
        <ele>197.20752</ele>
        <time>2011-03-15T17:15:29Z</time>
      </trkpt>
      <trkpt lat="47.04491" lon="5.4754">
        <ele>197.20752</ele>
        <time>2011-03-15T17:15:52Z</time>
      </trkpt>
      <trkpt lat="47.04654" lon="5.47727">
        <ele>197.688232</ele>
        <time>2011-03-15T17:16:26Z</time>
      </trkpt>
      <trkpt lat="47.04771" lon="5.47799">
        <ele>198.168945</ele>
        <time>2011-03-15T17:16:47Z</time>
      </trkpt>
      <trkpt lat="47.04926" lon="5.4785">
        <ele>197.20752</ele>
        <time>2011-03-15T17:17:14Z</time>
      </trkpt>
      <trkpt lat="47.05062" lon="5.47958">
        <ele>197.20752</ele>
        <time>2011-03-15T17:17:40Z</time>
      </trkpt>
      <trkpt lat="47.05072" lon="5.47967">
        <ele>197.20752</ele>
        <time>2011-03-15T17:17:42Z</time>
      </trkpt>
      <trkpt lat="47.05091" lon="5.47999">
        <ele>197.20752</ele>
        <time>2011-03-15T17:17:47Z</time>
      </trkpt>
      <trkpt lat="47.05152" lon="5.48147">
        <ele>197.688232</ele>
        <time>2011-03-15T17:18:07Z</time>
      </trkpt>
      <trkpt lat="47.0525" lon="5.48271">
        <ele>197.688232</ele>
        <time>2011-03-15T17:18:28Z</time>
      </trkpt>
      <trkpt lat="47.05369" lon="5.48333">
        <ele>197.20752</ele>
        <time>2011-03-15T17:18:49Z</time>
      </trkpt>
      <trkpt lat="47.05472" lon="5.48324">
        <ele>197.688232</ele>
        <time>2011-03-15T17:19:06Z</time>
      </trkpt>
      <trkpt lat="47.05517" lon="5.48302">
        <ele>197.688232</ele>
        <time>2011-03-15T17:19:14Z</time>
      </trkpt>
      <trkpt lat="47.0563" lon="5.48281">
        <ele>197.20752</ele>
        <time>2011-03-15T17:19:32Z</time>
      </trkpt>
      <trkpt lat="47.05698" lon="5.48315">
        <ele>197.20752</ele>
        <time>2011-03-15T17:19:43Z</time>
      </trkpt>
      <trkpt lat="47.05742" lon="5.48392">
        <ele>198.168945</ele>
        <time>2011-03-15T17:19:54Z</time>
      </trkpt>
      <trkpt lat="47.05781" lon="5.48402">
        <ele>199.130127</ele>
        <time>2011-03-15T17:20:01Z</time>
      </trkpt>
      <trkpt lat="47.05902" lon="5.48333">
        <ele>198.168945</ele>
        <time>2011-03-15T17:20:22Z</time>
      </trkpt>
      <trkpt lat="47.06011" lon="5.48302">
        <ele>197.688232</ele>
        <time>2011-03-15T17:20:39Z</time>
      </trkpt>
      <trkpt lat="47.06129" lon="5.48274">
        <ele>198.649536</ele>
        <time>2011-03-15T17:20:58Z</time>
      </trkpt>
      <trkpt lat="47.06224" lon="5.48218">
        <ele>199.61084</ele>
        <time>2011-03-15T17:21:15Z</time>
      </trkpt>
      <trkpt lat="47.06236" lon="5.48213">
        <ele>199.61084</ele>
        <time>2011-03-15T17:21:17Z</time>
      </trkpt>
      <trkpt lat="47.06324" lon="5.48219">
        <ele>201.052856</ele>
        <time>2011-03-15T17:21:32Z</time>
      </trkpt>
      <trkpt lat="47.06343" lon="5.48223">
        <ele>202.494873</ele>
        <time>2011-03-15T17:21:36Z</time>
      </trkpt>
      <trkpt lat="47.06393" lon="5.48246">
        <ele>205.859497</ele>
        <time>2011-03-15T17:21:48Z</time>
      </trkpt>
      <trkpt lat="47.06466" lon="5.48274">
        <ele>206.820679</ele>
        <time>2011-03-15T17:22:06Z</time>
      </trkpt>
      <trkpt lat="47.06524" lon="5.48299">
        <ele>206.820679</ele>
        <time>2011-03-15T17:22:23Z</time>
      </trkpt>
      <trkpt lat="47.0654" lon="5.48316">
        <ele>206.820679</ele>
        <time>2011-03-15T17:22:28Z</time>
      </trkpt>
      <trkpt lat="47.06553" lon="5.4834">
        <ele>206.820679</ele>
        <time>2011-03-15T17:22:33Z</time>
      </trkpt>
      <trkpt lat="47.06571" lon="5.48407">
        <ele>207.782104</ele>
        <time>2011-03-15T17:22:44Z</time>
      </trkpt>
      <trkpt lat="47.06601" lon="5.48445">
        <ele>208.262817</ele>
        <time>2011-03-15T17:22:53Z</time>
      </trkpt>
      <trkpt lat="47.06642" lon="5.48456">
        <ele>209.704834</ele>
        <time>2011-03-15T17:23:02Z</time>
      </trkpt>
      <trkpt lat="47.06665" lon="5.485">
        <ele>209.704834</ele>
        <time>2011-03-15T17:23:11Z</time>
      </trkpt>
      <trkpt lat="47.06661" lon="5.48567">
        <ele>209.704834</ele>
        <time>2011-03-15T17:23:20Z</time>
      </trkpt>
      <trkpt lat="47.06654" lon="5.48603">
        <ele>208.262817</ele>
        <time>2011-03-15T17:23:24Z</time>
      </trkpt>
      <trkpt lat="47.06639" lon="5.48688">
        <ele>207.301392</ele>
        <time>2011-03-15T17:23:33Z</time>
      </trkpt>
      <trkpt lat="47.0665" lon="5.48745">
        <ele>207.782104</ele>
        <time>2011-03-15T17:23:40Z</time>
      </trkpt>
      <trkpt lat="47.0669" lon="5.48814">
        <ele>211.627441</ele>
        <time>2011-03-15T17:23:52Z</time>
      </trkpt>
      <trkpt lat="47.06712" lon="5.48842">
        <ele>212.108032</ele>
        <time>2011-03-15T17:23:58Z</time>
      </trkpt>
      <trkpt lat="47.0673" lon="5.48871">
        <ele>212.588623</ele>
        <time>2011-03-15T17:24:05Z</time>
      </trkpt>
      <trkpt lat="47.06742" lon="5.48864">
        <ele>212.588623</ele>
        <time>2011-03-15T17:24:09Z</time>
      </trkpt>
      <trkpt lat="47.06832" lon="5.4877">
        <ele>212.108032</ele>
        <time>2011-03-15T17:24:32Z</time>
      </trkpt>
      <trkpt lat="47.06894" lon="5.48713">
        <ele>210.666016</ele>
        <time>2011-03-15T17:24:45Z</time>
      </trkpt>
      <trkpt lat="47.0691" lon="5.48705">
        <ele>210.666016</ele>
        <time>2011-03-15T17:24:48Z</time>
      </trkpt>
      <trkpt lat="47.06934" lon="5.48703">
        <ele>210.666016</ele>
        <time>2011-03-15T17:24:52Z</time>
      </trkpt>
      <trkpt lat="47.0698" lon="5.48724">
        <ele>210.185425</ele>
        <time>2011-03-15T17:25:03Z</time>
      </trkpt>
      <trkpt lat="47.07025" lon="5.4878">
        <ele>211.627441</ele>
        <time>2011-03-15T17:25:17Z</time>
      </trkpt>
      <trkpt lat="47.07099" lon="5.48875">
        <ele>211.146729</ele>
        <time>2011-03-15T17:25:36Z</time>
      </trkpt>
      <trkpt lat="47.07174" lon="5.49015">
        <ele>211.627441</ele>
        <time>2011-03-15T17:25:58Z</time>
      </trkpt>
      <trkpt lat="47.07215" lon="5.49122">
        <ele>213.069336</ele>
        <time>2011-03-15T17:26:14Z</time>
      </trkpt>
      <trkpt lat="47.07221" lon="5.49142">
        <ele>212.588623</ele>
        <time>2011-03-15T17:26:17Z</time>
      </trkpt>
      <trkpt lat="47.07229" lon="5.49178">
        <ele>213.069336</ele>
        <time>2011-03-15T17:26:22Z</time>
      </trkpt>
      <trkpt lat="47.07243" lon="5.49197">
        <ele>213.550049</ele>
        <time>2011-03-15T17:26:26Z</time>
      </trkpt>
      <trkpt lat="47.07308" lon="5.49286">
        <ele>214.51123</ele>
        <time>2011-03-15T17:26:45Z</time>
      </trkpt>
      <trkpt lat="47.07377" lon="5.49371">
        <ele>213.069336</ele>
        <time>2011-03-15T17:27:02Z</time>
      </trkpt>
      <trkpt lat="47.07409" lon="5.49406">
        <ele>211.146729</ele>
        <time>2011-03-15T17:27:09Z</time>
      </trkpt>
      <trkpt lat="47.0742" lon="5.4943">
        <ele>210.666016</ele>
        <time>2011-03-15T17:27:13Z</time>
      </trkpt>
      <trkpt lat="47.07424" lon="5.49451">
        <ele>210.185425</ele>
        <time>2011-03-15T17:27:16Z</time>
      </trkpt>
      <trkpt lat="47.07439" lon="5.49474">
        <ele>209.704834</ele>
        <time>2011-03-15T17:27:21Z</time>
      </trkpt>
      <trkpt lat="47.07436" lon="5.49498">
        <ele>210.666016</ele>
        <time>2011-03-15T17:27:31Z</time>
      </trkpt>
      <trkpt lat="47.07434" lon="5.49499">
        <ele>210.666016</ele>
        <time>2011-03-15T17:27:58Z</time>
      </trkpt>
      <trkpt lat="47.07433" lon="5.49499">
        <ele>210.666016</ele>
        <time>2011-03-15T17:28:29Z</time>
      </trkpt>
      <trkpt lat="47.07433" lon="5.49499">
        <ele>210.666016</ele>
        <time>2011-03-15T17:29:00Z</time>
      </trkpt>
      <trkpt lat="47.07433" lon="5.49498">
        <ele>210.666016</ele>
        <time>2011-03-15T17:29:58Z</time>
      </trkpt>
      <trkpt lat="47.07433" lon="5.49499">
        <ele>210.666016</ele>
        <time>2011-03-15T17:30:36Z</time>
      </trkpt>
      <trkpt lat="47.0743" lon="5.49499">
        <ele>210.666016</ele>
        <time>2011-03-15T17:30:54Z</time>
      </trkpt>
      <trkpt lat="47.07433" lon="5.495">
        <ele>210.666016</ele>
        <time>2011-03-15T17:31:20Z</time>
      </trkpt>
      <trkpt lat="47.07432" lon="5.495">
        <ele>211.146729</ele>
        <time>2011-03-15T17:31:57Z</time>
      </trkpt>
      <trkpt lat="47.07432" lon="5.49499">
        <ele>210.666016</ele>
        <time>2011-03-15T17:32:12Z</time>
      </trkpt>
      <trkpt lat="47.07433" lon="5.49497">
        <ele>210.666016</ele>
        <time>2011-03-15T17:32:30Z</time>
      </trkpt>
      <trkpt lat="47.07434" lon="5.49498">
        <ele>211.146729</ele>
        <time>2011-03-15T17:32:46Z</time>
      </trkpt>
      <trkpt lat="47.07435" lon="5.49499">
        <ele>210.666016</ele>
        <time>2011-03-15T17:33:04Z</time>
      </trkpt>
      <trkpt lat="47.07434" lon="5.49499">
        <ele>210.666016</ele>
        <time>2011-03-15T17:34:19Z</time>
      </trkpt>
      <trkpt lat="47.07434" lon="5.495">
        <ele>210.666016</ele>
        <time>2011-03-15T17:34:52Z</time>
      </trkpt>
      <trkpt lat="47.07434" lon="5.49501">
        <ele>210.666016</ele>
        <time>2011-03-15T17:35:25Z</time>
      </trkpt>
      <trkpt lat="47.07434" lon="5.49502">
        <ele>210.666016</ele>
        <time>2011-03-15T17:36:29Z</time>
      </trkpt>
      <trkpt lat="47.07433" lon="5.49502">
        <ele>210.666016</ele>
        <time>2011-03-15T17:36:46Z</time>
      </trkpt>
      <trkpt lat="47.0743" lon="5.49502">
        <ele>210.185425</ele>
        <time>2011-03-15T17:37:07Z</time>
      </trkpt>
      <trkpt lat="47.07428" lon="5.49499">
        <ele>210.185425</ele>
        <time>2011-03-15T17:38:22Z</time>
      </trkpt>
      <trkpt lat="47.07428" lon="5.49499">
        <ele>210.666016</ele>
        <time>2011-03-15T17:38:32Z</time>
      </trkpt>
    </trkseg>
  </trk>
</gpx>